<?xml version="1.0" encoding="UTF-8" standalone="no" ?>
<gpx xmlns="http://www.topografix.com/GPX/1/1" xmlns:xsi="http://www.w3.org/2001/XMLSchema-instance" xsi:schemaLocation="http://www.topografix.com/GPX/1/1 http://www.topografix.com/GPX/1/1/gpx.xsd" version="1.1" creator="VisuGPX - https://www.visugpx.com">
  <metadata>
    <name>Autour de Saumane</name>
    <desc><![CDATA[Balade au départ de Saumane.]]></desc>
  </metadata>
  <trk>
    <name><![CDATA[2020-09-28 15-15-40]]></name>
    <trkseg>
      <trkpt lat="43.93733" lon="5.1055">
        <ele>205.86</ele>
        <time>2020-09-28T07:13:53Z</time>
      </trkpt>
      <trkpt lat="43.93733" lon="5.1055">
        <ele>205.86</ele>
        <time>2020-09-28T07:13:54Z</time>
      </trkpt>
      <trkpt lat="43.93733" lon="5.10549">
        <ele>205.38</ele>
        <time>2020-09-28T07:14:23Z</time>
      </trkpt>
      <trkpt lat="43.93733" lon="5.10552">
        <ele>205.38</ele>
        <time>2020-09-28T07:14:52Z</time>
      </trkpt>
      <trkpt lat="43.93731" lon="5.10556">
        <ele>205.86</ele>
        <time>2020-09-28T07:15:22Z</time>
      </trkpt>
      <trkpt lat="43.9373" lon="5.10557">
        <ele>205.86</ele>
        <time>2020-09-28T07:16:20Z</time>
      </trkpt>
      <trkpt lat="43.93728" lon="5.10558">
        <ele>205.86</ele>
        <time>2020-09-28T07:16:53Z</time>
      </trkpt>
      <trkpt lat="43.93728" lon="5.10554">
        <ele>205.86</ele>
        <time>2020-09-28T07:17:38Z</time>
      </trkpt>
      <trkpt lat="43.93731" lon="5.10555">
        <ele>205.86</ele>
        <time>2020-09-28T07:18:21Z</time>
      </trkpt>
      <trkpt lat="43.93729" lon="5.10558">
        <ele>205.86</ele>
        <time>2020-09-28T07:18:58Z</time>
      </trkpt>
      <trkpt lat="43.93728" lon="5.10558">
        <ele>205.86</ele>
        <time>2020-09-28T07:19:34Z</time>
      </trkpt>
      <trkpt lat="43.9373" lon="5.10559">
        <ele>205.86</ele>
        <time>2020-09-28T07:20:19Z</time>
      </trkpt>
      <trkpt lat="43.93732" lon="5.10551">
        <ele>205.86</ele>
        <time>2020-09-28T07:20:55Z</time>
      </trkpt>
      <trkpt lat="43.93729" lon="5.10558">
        <ele>205.86</ele>
        <time>2020-09-28T07:21:28Z</time>
      </trkpt>
      <trkpt lat="43.93732" lon="5.10554">
        <ele>205.86</ele>
        <time>2020-09-28T07:22:04Z</time>
      </trkpt>
      <trkpt lat="43.93733" lon="5.10555">
        <ele>205.86</ele>
        <time>2020-09-28T07:22:35Z</time>
      </trkpt>
      <trkpt lat="43.93733" lon="5.10553">
        <ele>205.86</ele>
        <time>2020-09-28T07:23:04Z</time>
      </trkpt>
      <trkpt lat="43.93732" lon="5.10548">
        <ele>205.86</ele>
        <time>2020-09-28T07:23:35Z</time>
      </trkpt>
      <trkpt lat="43.93733" lon="5.10549">
        <ele>205.86</ele>
        <time>2020-09-28T07:24:08Z</time>
      </trkpt>
      <trkpt lat="43.93733" lon="5.10552">
        <ele>205.86</ele>
        <time>2020-09-28T07:24:32Z</time>
      </trkpt>
      <trkpt lat="43.93734" lon="5.10554">
        <ele>205.86</ele>
        <time>2020-09-28T07:24:56Z</time>
      </trkpt>
      <trkpt lat="43.93733" lon="5.10556">
        <ele>205.86</ele>
        <time>2020-09-28T07:25:21Z</time>
      </trkpt>
      <trkpt lat="43.93731" lon="5.10555">
        <ele>205.86</ele>
        <time>2020-09-28T07:25:43Z</time>
      </trkpt>
      <trkpt lat="43.93731" lon="5.10553">
        <ele>205.86</ele>
        <time>2020-09-28T07:26:02Z</time>
      </trkpt>
      <trkpt lat="43.93731" lon="5.10552">
        <ele>205.86</ele>
        <time>2020-09-28T07:26:27Z</time>
      </trkpt>
      <trkpt lat="43.9373" lon="5.10554">
        <ele>205.86</ele>
        <time>2020-09-28T07:26:57Z</time>
      </trkpt>
      <trkpt lat="43.9373" lon="5.10553">
        <ele>205.86</ele>
        <time>2020-09-28T07:27:22Z</time>
      </trkpt>
      <trkpt lat="43.9373" lon="5.10554">
        <ele>205.86</ele>
        <time>2020-09-28T07:27:50Z</time>
      </trkpt>
      <trkpt lat="43.93731" lon="5.10555">
        <ele>205.86</ele>
        <time>2020-09-28T07:28:17Z</time>
      </trkpt>
      <trkpt lat="43.93731" lon="5.10559">
        <ele>205.86</ele>
        <time>2020-09-28T07:28:49Z</time>
      </trkpt>
      <trkpt lat="43.93733" lon="5.10556">
        <ele>205.86</ele>
        <time>2020-09-28T07:29:17Z</time>
      </trkpt>
      <trkpt lat="43.93733" lon="5.10554">
        <ele>205.86</ele>
        <time>2020-09-28T07:29:41Z</time>
      </trkpt>
      <trkpt lat="43.93732" lon="5.10551">
        <ele>205.86</ele>
        <time>2020-09-28T07:30:05Z</time>
      </trkpt>
      <trkpt lat="43.93749" lon="5.1055">
        <ele>205.86</ele>
        <time>2020-09-28T07:30:25Z</time>
      </trkpt>
      <trkpt lat="43.93756" lon="5.10551">
        <ele>205.38</ele>
        <time>2020-09-28T07:30:32Z</time>
      </trkpt>
      <trkpt lat="43.93768" lon="5.1055">
        <ele>204.9</ele>
        <time>2020-09-28T07:30:42Z</time>
      </trkpt>
      <trkpt lat="43.93775" lon="5.10549">
        <ele>204.42</ele>
        <time>2020-09-28T07:30:46Z</time>
      </trkpt>
      <trkpt lat="43.93785" lon="5.10553">
        <ele>203.94</ele>
        <time>2020-09-28T07:30:56Z</time>
      </trkpt>
      <trkpt lat="43.93792" lon="5.10561">
        <ele>202.98</ele>
        <time>2020-09-28T07:31:07Z</time>
      </trkpt>
      <trkpt lat="43.93799" lon="5.1056">
        <ele>202.98</ele>
        <time>2020-09-28T07:31:13Z</time>
      </trkpt>
      <trkpt lat="43.93817" lon="5.10549">
        <ele>202.01</ele>
        <time>2020-09-28T07:31:29Z</time>
      </trkpt>
      <trkpt lat="43.93831" lon="5.10536">
        <ele>201.05</ele>
        <time>2020-09-28T07:31:47Z</time>
      </trkpt>
      <trkpt lat="43.93845" lon="5.10531">
        <ele>200.57</ele>
        <time>2020-09-28T07:32:01Z</time>
      </trkpt>
      <trkpt lat="43.93859" lon="5.10544">
        <ele>202.49</ele>
        <time>2020-09-28T07:32:22Z</time>
      </trkpt>
      <trkpt lat="43.93873" lon="5.10544">
        <ele>205.86</ele>
        <time>2020-09-28T07:32:40Z</time>
      </trkpt>
      <trkpt lat="43.93884" lon="5.10536">
        <ele>208.74</ele>
        <time>2020-09-28T07:32:56Z</time>
      </trkpt>
      <trkpt lat="43.93892" lon="5.10534">
        <ele>210.19</ele>
        <time>2020-09-28T07:33:07Z</time>
      </trkpt>
      <trkpt lat="43.93904" lon="5.10535">
        <ele>211.63</ele>
        <time>2020-09-28T07:33:20Z</time>
      </trkpt>
      <trkpt lat="43.93917" lon="5.1054">
        <ele>214.03</ele>
        <time>2020-09-28T07:33:36Z</time>
      </trkpt>
      <trkpt lat="43.9393" lon="5.10535">
        <ele>215.47</ele>
        <time>2020-09-28T07:33:52Z</time>
      </trkpt>
      <trkpt lat="43.93946" lon="5.10531">
        <ele>218.84</ele>
        <time>2020-09-28T07:34:08Z</time>
      </trkpt>
      <trkpt lat="43.93961" lon="5.10528">
        <ele>220.76</ele>
        <time>2020-09-28T07:34:25Z</time>
      </trkpt>
      <trkpt lat="43.93986" lon="5.10517">
        <ele>223.16</ele>
        <time>2020-09-28T07:34:52Z</time>
      </trkpt>
      <trkpt lat="43.93999" lon="5.10517">
        <ele>225.09</ele>
        <time>2020-09-28T07:35:09Z</time>
      </trkpt>
      <trkpt lat="43.9401" lon="5.10522">
        <ele>226.53</ele>
        <time>2020-09-28T07:35:25Z</time>
      </trkpt>
      <trkpt lat="43.94018" lon="5.10524">
        <ele>227.97</ele>
        <time>2020-09-28T07:35:43Z</time>
      </trkpt>
      <trkpt lat="43.94041" lon="5.10526">
        <ele>230.85</ele>
        <time>2020-09-28T07:36:09Z</time>
      </trkpt>
      <trkpt lat="43.94054" lon="5.10533">
        <ele>233.26</ele>
        <time>2020-09-28T07:36:27Z</time>
      </trkpt>
      <trkpt lat="43.94071" lon="5.10536">
        <ele>235.18</ele>
        <time>2020-09-28T07:36:46Z</time>
      </trkpt>
      <trkpt lat="43.94082" lon="5.10543">
        <ele>236.62</ele>
        <time>2020-09-28T07:36:58Z</time>
      </trkpt>
      <trkpt lat="43.94094" lon="5.1055">
        <ele>237.58</ele>
        <time>2020-09-28T07:37:11Z</time>
      </trkpt>
      <trkpt lat="43.94106" lon="5.10558">
        <ele>239.02</ele>
        <time>2020-09-28T07:37:25Z</time>
      </trkpt>
      <trkpt lat="43.94123" lon="5.10571">
        <ele>241.43</ele>
        <time>2020-09-28T07:37:43Z</time>
      </trkpt>
      <trkpt lat="43.94124" lon="5.10574">
        <ele>241.91</ele>
        <time>2020-09-28T07:37:45Z</time>
      </trkpt>
      <trkpt lat="43.94137" lon="5.10586">
        <ele>243.83</ele>
        <time>2020-09-28T07:38:01Z</time>
      </trkpt>
      <trkpt lat="43.94139" lon="5.1059">
        <ele>244.31</ele>
        <time>2020-09-28T07:38:20Z</time>
      </trkpt>
      <trkpt lat="43.94153" lon="5.10609">
        <ele>246.72</ele>
        <time>2020-09-28T07:38:42Z</time>
      </trkpt>
      <trkpt lat="43.94165" lon="5.1063">
        <ele>248.64</ele>
        <time>2020-09-28T07:39:01Z</time>
      </trkpt>
      <trkpt lat="43.94172" lon="5.10639">
        <ele>249.6</ele>
        <time>2020-09-28T07:39:16Z</time>
      </trkpt>
      <trkpt lat="43.94175" lon="5.10637">
        <ele>249.6</ele>
        <time>2020-09-28T07:39:44Z</time>
      </trkpt>
      <trkpt lat="43.94176" lon="5.10637">
        <ele>248.64</ele>
        <time>2020-09-28T07:40:09Z</time>
      </trkpt>
      <trkpt lat="43.94175" lon="5.10639">
        <ele>248.64</ele>
        <time>2020-09-28T07:40:37Z</time>
      </trkpt>
      <trkpt lat="43.94176" lon="5.10639">
        <ele>248.64</ele>
        <time>2020-09-28T07:41:07Z</time>
      </trkpt>
      <trkpt lat="43.94178" lon="5.10636">
        <ele>248.64</ele>
        <time>2020-09-28T07:41:39Z</time>
      </trkpt>
      <trkpt lat="43.94178" lon="5.10642">
        <ele>249.12</ele>
        <time>2020-09-28T07:41:45Z</time>
      </trkpt>
      <trkpt lat="43.94191" lon="5.10663">
        <ele>250.08</ele>
        <time>2020-09-28T07:42:03Z</time>
      </trkpt>
      <trkpt lat="43.94197" lon="5.1068">
        <ele>252.96</ele>
        <time>2020-09-28T07:42:20Z</time>
      </trkpt>
      <trkpt lat="43.94201" lon="5.10691">
        <ele>252.96</ele>
        <time>2020-09-28T07:42:31Z</time>
      </trkpt>
      <trkpt lat="43.94204" lon="5.10698">
        <ele>252.96</ele>
        <time>2020-09-28T07:42:36Z</time>
      </trkpt>
      <trkpt lat="43.94205" lon="5.10701">
        <ele>252.96</ele>
        <time>2020-09-28T07:42:38Z</time>
      </trkpt>
      <trkpt lat="43.94211" lon="5.10708">
        <ele>252.96</ele>
        <time>2020-09-28T07:42:44Z</time>
      </trkpt>
      <trkpt lat="43.94218" lon="5.10721">
        <ele>253.44</ele>
        <time>2020-09-28T07:42:55Z</time>
      </trkpt>
      <trkpt lat="43.94223" lon="5.10733">
        <ele>254.41</ele>
        <time>2020-09-28T07:43:05Z</time>
      </trkpt>
      <trkpt lat="43.94234" lon="5.10754">
        <ele>256.33</ele>
        <time>2020-09-28T07:43:22Z</time>
      </trkpt>
      <trkpt lat="43.94242" lon="5.10764">
        <ele>257.29</ele>
        <time>2020-09-28T07:43:32Z</time>
      </trkpt>
      <trkpt lat="43.94247" lon="5.10769">
        <ele>257.29</ele>
        <time>2020-09-28T07:43:40Z</time>
      </trkpt>
      <trkpt lat="43.94251" lon="5.10773">
        <ele>257.77</ele>
        <time>2020-09-28T07:43:44Z</time>
      </trkpt>
      <trkpt lat="43.94261" lon="5.10788">
        <ele>258.73</ele>
        <time>2020-09-28T07:44:00Z</time>
      </trkpt>
      <trkpt lat="43.9427" lon="5.10808">
        <ele>259.69</ele>
        <time>2020-09-28T07:44:18Z</time>
      </trkpt>
      <trkpt lat="43.94291" lon="5.10823">
        <ele>261.62</ele>
        <time>2020-09-28T07:44:38Z</time>
      </trkpt>
      <trkpt lat="43.94306" lon="5.10842">
        <ele>263.06</ele>
        <time>2020-09-28T07:44:57Z</time>
      </trkpt>
      <trkpt lat="43.94311" lon="5.10843">
        <ele>263.54</ele>
        <time>2020-09-28T07:45:00Z</time>
      </trkpt>
      <trkpt lat="43.94318" lon="5.10849">
        <ele>264.02</ele>
        <time>2020-09-28T07:45:07Z</time>
      </trkpt>
      <trkpt lat="43.9432" lon="5.10852">
        <ele>264.02</ele>
        <time>2020-09-28T07:45:10Z</time>
      </trkpt>
      <trkpt lat="43.94335" lon="5.10862">
        <ele>264.98</ele>
        <time>2020-09-28T07:45:27Z</time>
      </trkpt>
      <trkpt lat="43.94352" lon="5.10866">
        <ele>265.46</ele>
        <time>2020-09-28T07:45:44Z</time>
      </trkpt>
      <trkpt lat="43.94381" lon="5.10876">
        <ele>266.9</ele>
        <time>2020-09-28T07:46:06Z</time>
      </trkpt>
      <trkpt lat="43.94395" lon="5.10882">
        <ele>268.35</ele>
        <time>2020-09-28T07:46:22Z</time>
      </trkpt>
      <trkpt lat="43.94414" lon="5.10897">
        <ele>269.79</ele>
        <time>2020-09-28T07:46:42Z</time>
      </trkpt>
      <trkpt lat="43.9443" lon="5.10909">
        <ele>270.75</ele>
        <time>2020-09-28T07:46:57Z</time>
      </trkpt>
      <trkpt lat="43.9445" lon="5.10928">
        <ele>273.63</ele>
        <time>2020-09-28T07:47:20Z</time>
      </trkpt>
      <trkpt lat="43.94451" lon="5.10929">
        <ele>273.63</ele>
        <time>2020-09-28T07:47:21Z</time>
      </trkpt>
      <trkpt lat="43.9447" lon="5.10949">
        <ele>275.56</ele>
        <time>2020-09-28T07:47:45Z</time>
      </trkpt>
      <trkpt lat="43.94479" lon="5.10963">
        <ele>276.52</ele>
        <time>2020-09-28T07:48:01Z</time>
      </trkpt>
      <trkpt lat="43.94487" lon="5.10974">
        <ele>277</ele>
        <time>2020-09-28T07:48:12Z</time>
      </trkpt>
      <trkpt lat="43.94502" lon="5.10989">
        <ele>278.44</ele>
        <time>2020-09-28T07:48:27Z</time>
      </trkpt>
      <trkpt lat="43.9452" lon="5.11008">
        <ele>279.88</ele>
        <time>2020-09-28T07:48:51Z</time>
      </trkpt>
      <trkpt lat="43.94541" lon="5.1103">
        <ele>281.8</ele>
        <time>2020-09-28T07:49:16Z</time>
      </trkpt>
      <trkpt lat="43.94552" lon="5.11041">
        <ele>281.32</ele>
        <time>2020-09-28T07:49:32Z</time>
      </trkpt>
      <trkpt lat="43.94561" lon="5.11056">
        <ele>281.8</ele>
        <time>2020-09-28T07:49:46Z</time>
      </trkpt>
      <trkpt lat="43.94578" lon="5.11076">
        <ele>282.28</ele>
        <time>2020-09-28T07:50:09Z</time>
      </trkpt>
      <trkpt lat="43.94588" lon="5.11086">
        <ele>282.28</ele>
        <time>2020-09-28T07:50:23Z</time>
      </trkpt>
      <trkpt lat="43.94603" lon="5.11097">
        <ele>282.28</ele>
        <time>2020-09-28T07:50:42Z</time>
      </trkpt>
      <trkpt lat="43.94621" lon="5.11107">
        <ele>282.28</ele>
        <time>2020-09-28T07:50:58Z</time>
      </trkpt>
      <trkpt lat="43.94645" lon="5.11111">
        <ele>282.77</ele>
        <time>2020-09-28T07:51:20Z</time>
      </trkpt>
      <trkpt lat="43.94663" lon="5.11112">
        <ele>282.28</ele>
        <time>2020-09-28T07:51:38Z</time>
      </trkpt>
      <trkpt lat="43.94683" lon="5.11112">
        <ele>282.77</ele>
        <time>2020-09-28T07:51:57Z</time>
      </trkpt>
      <trkpt lat="43.94703" lon="5.11114">
        <ele>282.77</ele>
        <time>2020-09-28T07:52:21Z</time>
      </trkpt>
      <trkpt lat="43.94724" lon="5.1112">
        <ele>284.21</ele>
        <time>2020-09-28T07:52:45Z</time>
      </trkpt>
      <trkpt lat="43.94734" lon="5.11119">
        <ele>285.17</ele>
        <time>2020-09-28T07:53:00Z</time>
      </trkpt>
      <trkpt lat="43.94738" lon="5.1112">
        <ele>285.17</ele>
        <time>2020-09-28T07:53:24Z</time>
      </trkpt>
      <trkpt lat="43.9474" lon="5.11121">
        <ele>284.21</ele>
        <time>2020-09-28T07:53:51Z</time>
      </trkpt>
      <trkpt lat="43.94739" lon="5.11121">
        <ele>284.69</ele>
        <time>2020-09-28T07:54:16Z</time>
      </trkpt>
      <trkpt lat="43.94734" lon="5.11117">
        <ele>285.17</ele>
        <time>2020-09-28T07:54:45Z</time>
      </trkpt>
      <trkpt lat="43.94736" lon="5.1112">
        <ele>284.69</ele>
        <time>2020-09-28T07:55:09Z</time>
      </trkpt>
      <trkpt lat="43.94741" lon="5.11114">
        <ele>284.21</ele>
        <time>2020-09-28T07:55:42Z</time>
      </trkpt>
      <trkpt lat="43.94753" lon="5.11101">
        <ele>283.25</ele>
        <time>2020-09-28T07:56:02Z</time>
      </trkpt>
      <trkpt lat="43.94756" lon="5.11077">
        <ele>284.69</ele>
        <time>2020-09-28T07:56:25Z</time>
      </trkpt>
      <trkpt lat="43.94745" lon="5.11069">
        <ele>287.57</ele>
        <time>2020-09-28T07:56:45Z</time>
      </trkpt>
      <trkpt lat="43.94723" lon="5.11049">
        <ele>290.46</ele>
        <time>2020-09-28T07:57:08Z</time>
      </trkpt>
      <trkpt lat="43.9473" lon="5.11042">
        <ele>292.38</ele>
        <time>2020-09-28T07:57:28Z</time>
      </trkpt>
      <trkpt lat="43.94745" lon="5.11039">
        <ele>295.26</ele>
        <time>2020-09-28T07:57:52Z</time>
      </trkpt>
      <trkpt lat="43.94756" lon="5.11038">
        <ele>296.7</ele>
        <time>2020-09-28T07:58:04Z</time>
      </trkpt>
      <trkpt lat="43.94763" lon="5.11037">
        <ele>297.67</ele>
        <time>2020-09-28T07:58:20Z</time>
      </trkpt>
      <trkpt lat="43.94758" lon="5.11034">
        <ele>297.18</ele>
        <time>2020-09-28T07:58:42Z</time>
      </trkpt>
      <trkpt lat="43.94755" lon="5.11035">
        <ele>296.7</ele>
        <time>2020-09-28T07:59:09Z</time>
      </trkpt>
      <trkpt lat="43.94757" lon="5.11037">
        <ele>296.7</ele>
        <time>2020-09-28T07:59:27Z</time>
      </trkpt>
      <trkpt lat="43.94757" lon="5.11039">
        <ele>296.22</ele>
        <time>2020-09-28T07:59:52Z</time>
      </trkpt>
      <trkpt lat="43.94756" lon="5.11036">
        <ele>296.22</ele>
        <time>2020-09-28T08:01:08Z</time>
      </trkpt>
      <trkpt lat="43.94758" lon="5.11037">
        <ele>296.22</ele>
        <time>2020-09-28T08:02:24Z</time>
      </trkpt>
      <trkpt lat="43.94758" lon="5.11036">
        <ele>296.22</ele>
        <time>2020-09-28T08:04:20Z</time>
      </trkpt>
      <trkpt lat="43.94758" lon="5.11036">
        <ele>296.22</ele>
        <time>2020-09-28T08:07:18Z</time>
      </trkpt>
      <trkpt lat="43.94757" lon="5.11037">
        <ele>296.22</ele>
        <time>2020-09-28T08:09:50Z</time>
      </trkpt>
      <trkpt lat="43.94757" lon="5.11037">
        <ele>296.22</ele>
        <time>2020-09-28T08:11:17Z</time>
      </trkpt>
      <trkpt lat="43.94757" lon="5.11037">
        <ele>291.42</ele>
        <time>2020-09-28T08:11:28Z</time>
      </trkpt>
      <trkpt lat="43.94757" lon="5.11037">
        <ele>297.18</ele>
        <time>2020-09-28T08:11:29Z</time>
      </trkpt>
      <trkpt lat="43.94757" lon="5.11035">
        <ele>296.22</ele>
        <time>2020-09-28T08:12:03Z</time>
      </trkpt>
      <trkpt lat="43.94757" lon="5.11036">
        <ele>296.22</ele>
        <time>2020-09-28T08:12:35Z</time>
      </trkpt>
      <trkpt lat="43.94756" lon="5.11036">
        <ele>296.22</ele>
        <time>2020-09-28T08:13:03Z</time>
      </trkpt>
      <trkpt lat="43.94757" lon="5.11036">
        <ele>296.22</ele>
        <time>2020-09-28T08:13:32Z</time>
      </trkpt>
      <trkpt lat="43.94757" lon="5.11037">
        <ele>296.22</ele>
        <time>2020-09-28T08:14:04Z</time>
      </trkpt>
      <trkpt lat="43.94757" lon="5.11036">
        <ele>296.22</ele>
        <time>2020-09-28T08:14:31Z</time>
      </trkpt>
      <trkpt lat="43.94757" lon="5.11036">
        <ele>296.22</ele>
        <time>2020-09-28T08:15:01Z</time>
      </trkpt>
      <trkpt lat="43.94756" lon="5.11037">
        <ele>296.22</ele>
        <time>2020-09-28T08:15:39Z</time>
      </trkpt>
      <trkpt lat="43.94759" lon="5.11036">
        <ele>296.22</ele>
        <time>2020-09-28T08:16:03Z</time>
      </trkpt>
      <trkpt lat="43.94766" lon="5.11037">
        <ele>296.22</ele>
        <time>2020-09-28T08:16:28Z</time>
      </trkpt>
      <trkpt lat="43.94776" lon="5.1104">
        <ele>296.22</ele>
        <time>2020-09-28T08:16:48Z</time>
      </trkpt>
      <trkpt lat="43.94788" lon="5.11044">
        <ele>296.22</ele>
        <time>2020-09-28T08:17:13Z</time>
      </trkpt>
      <trkpt lat="43.948" lon="5.11046">
        <ele>298.63</ele>
        <time>2020-09-28T08:17:27Z</time>
      </trkpt>
      <trkpt lat="43.94816" lon="5.11043">
        <ele>300.07</ele>
        <time>2020-09-28T08:17:50Z</time>
      </trkpt>
      <trkpt lat="43.94836" lon="5.11046">
        <ele>301.99</ele>
        <time>2020-09-28T08:18:16Z</time>
      </trkpt>
      <trkpt lat="43.94859" lon="5.11048">
        <ele>302.47</ele>
        <time>2020-09-28T08:18:38Z</time>
      </trkpt>
      <trkpt lat="43.94875" lon="5.11044">
        <ele>303.91</ele>
        <time>2020-09-28T08:18:54Z</time>
      </trkpt>
      <trkpt lat="43.94893" lon="5.11036">
        <ele>305.84</ele>
        <time>2020-09-28T08:19:13Z</time>
      </trkpt>
      <trkpt lat="43.9491" lon="5.11028">
        <ele>308.24</ele>
        <time>2020-09-28T08:19:34Z</time>
      </trkpt>
      <trkpt lat="43.94932" lon="5.1102">
        <ele>310.16</ele>
        <time>2020-09-28T08:19:56Z</time>
      </trkpt>
      <trkpt lat="43.94949" lon="5.1101">
        <ele>312.57</ele>
        <time>2020-09-28T08:20:18Z</time>
      </trkpt>
      <trkpt lat="43.94972" lon="5.11006">
        <ele>314.97</ele>
        <time>2020-09-28T08:20:42Z</time>
      </trkpt>
      <trkpt lat="43.94984" lon="5.10999">
        <ele>316.41</ele>
        <time>2020-09-28T08:21:07Z</time>
      </trkpt>
      <trkpt lat="43.94984" lon="5.10999">
        <ele>317.37</ele>
        <time>2020-09-28T08:21:37Z</time>
      </trkpt>
      <trkpt lat="43.94991" lon="5.10991">
        <ele>318.33</ele>
        <time>2020-09-28T08:22:02Z</time>
      </trkpt>
      <trkpt lat="43.95001" lon="5.10988">
        <ele>319.3</ele>
        <time>2020-09-28T08:22:12Z</time>
      </trkpt>
      <trkpt lat="43.95016" lon="5.10984">
        <ele>321.7</ele>
        <time>2020-09-28T08:22:28Z</time>
      </trkpt>
      <trkpt lat="43.95029" lon="5.10974">
        <ele>324.58</ele>
        <time>2020-09-28T08:22:49Z</time>
      </trkpt>
      <trkpt lat="43.95035" lon="5.10959">
        <ele>326.02</ele>
        <time>2020-09-28T08:23:10Z</time>
      </trkpt>
      <trkpt lat="43.95043" lon="5.1095">
        <ele>326.5</ele>
        <time>2020-09-28T08:23:32Z</time>
      </trkpt>
      <trkpt lat="43.95046" lon="5.10946">
        <ele>326.99</ele>
        <time>2020-09-28T08:24:00Z</time>
      </trkpt>
      <trkpt lat="43.95045" lon="5.10949">
        <ele>326.99</ele>
        <time>2020-09-28T08:24:28Z</time>
      </trkpt>
      <trkpt lat="43.95046" lon="5.10948">
        <ele>326.99</ele>
        <time>2020-09-28T08:24:55Z</time>
      </trkpt>
      <trkpt lat="43.95046" lon="5.10947">
        <ele>326.99</ele>
        <time>2020-09-28T08:25:23Z</time>
      </trkpt>
      <trkpt lat="43.95054" lon="5.10942">
        <ele>326.99</ele>
        <time>2020-09-28T08:25:41Z</time>
      </trkpt>
      <trkpt lat="43.95061" lon="5.10932">
        <ele>328.43</ele>
        <time>2020-09-28T08:25:51Z</time>
      </trkpt>
      <trkpt lat="43.95068" lon="5.1091">
        <ele>329.39</ele>
        <time>2020-09-28T08:26:08Z</time>
      </trkpt>
      <trkpt lat="43.95076" lon="5.10891">
        <ele>329.39</ele>
        <time>2020-09-28T08:26:24Z</time>
      </trkpt>
      <trkpt lat="43.95074" lon="5.10896">
        <ele>329.39</ele>
        <time>2020-09-28T08:26:42Z</time>
      </trkpt>
      <trkpt lat="43.95067" lon="5.10914">
        <ele>329.39</ele>
        <time>2020-09-28T08:26:57Z</time>
      </trkpt>
      <trkpt lat="43.95072" lon="5.10921">
        <ele>329.39</ele>
        <time>2020-09-28T08:27:10Z</time>
      </trkpt>
      <trkpt lat="43.9508" lon="5.10923">
        <ele>330.35</ele>
        <time>2020-09-28T08:27:29Z</time>
      </trkpt>
      <trkpt lat="43.95085" lon="5.1092">
        <ele>330.83</ele>
        <time>2020-09-28T08:27:54Z</time>
      </trkpt>
      <trkpt lat="43.95104" lon="5.10921">
        <ele>332.27</ele>
        <time>2020-09-28T08:28:15Z</time>
      </trkpt>
      <trkpt lat="43.95113" lon="5.10927">
        <ele>333.23</ele>
        <time>2020-09-28T08:28:31Z</time>
      </trkpt>
      <trkpt lat="43.95133" lon="5.10934">
        <ele>335.64</ele>
        <time>2020-09-28T08:28:49Z</time>
      </trkpt>
      <trkpt lat="43.95137" lon="5.10934">
        <ele>335.64</ele>
        <time>2020-09-28T08:28:52Z</time>
      </trkpt>
      <trkpt lat="43.95159" lon="5.10939">
        <ele>337.56</ele>
        <time>2020-09-28T08:29:13Z</time>
      </trkpt>
      <trkpt lat="43.95178" lon="5.10951">
        <ele>339.96</ele>
        <time>2020-09-28T08:29:35Z</time>
      </trkpt>
      <trkpt lat="43.95193" lon="5.10957">
        <ele>341.41</ele>
        <time>2020-09-28T08:29:55Z</time>
      </trkpt>
      <trkpt lat="43.95203" lon="5.1096">
        <ele>342.85</ele>
        <time>2020-09-28T08:30:07Z</time>
      </trkpt>
      <trkpt lat="43.95216" lon="5.10972">
        <ele>345.73</ele>
        <time>2020-09-28T08:30:25Z</time>
      </trkpt>
      <trkpt lat="43.95228" lon="5.10973">
        <ele>348.13</ele>
        <time>2020-09-28T08:30:41Z</time>
      </trkpt>
      <trkpt lat="43.95241" lon="5.10984">
        <ele>350.06</ele>
        <time>2020-09-28T08:31:02Z</time>
      </trkpt>
      <trkpt lat="43.95244" lon="5.10987">
        <ele>350.54</ele>
        <time>2020-09-28T08:31:24Z</time>
      </trkpt>
      <trkpt lat="43.95244" lon="5.10986">
        <ele>351.02</ele>
        <time>2020-09-28T08:31:56Z</time>
      </trkpt>
      <trkpt lat="43.95245" lon="5.10991">
        <ele>351.02</ele>
        <time>2020-09-28T08:32:32Z</time>
      </trkpt>
      <trkpt lat="43.95256" lon="5.11">
        <ele>351.02</ele>
        <time>2020-09-28T08:32:53Z</time>
      </trkpt>
      <trkpt lat="43.95243" lon="5.11004">
        <ele>351.02</ele>
        <time>2020-09-28T08:33:13Z</time>
      </trkpt>
      <trkpt lat="43.95231" lon="5.11009">
        <ele>351.02</ele>
        <time>2020-09-28T08:33:31Z</time>
      </trkpt>
      <trkpt lat="43.95228" lon="5.11017">
        <ele>351.02</ele>
        <time>2020-09-28T08:33:46Z</time>
      </trkpt>
      <trkpt lat="43.95222" lon="5.11041">
        <ele>350.06</ele>
        <time>2020-09-28T08:34:01Z</time>
      </trkpt>
      <trkpt lat="43.95223" lon="5.11047">
        <ele>349.58</ele>
        <time>2020-09-28T08:34:06Z</time>
      </trkpt>
      <trkpt lat="43.95224" lon="5.11071">
        <ele>348.62</ele>
        <time>2020-09-28T08:34:22Z</time>
      </trkpt>
      <trkpt lat="43.95223" lon="5.11099">
        <ele>347.17</ele>
        <time>2020-09-28T08:34:40Z</time>
      </trkpt>
      <trkpt lat="43.95218" lon="5.11129">
        <ele>346.69</ele>
        <time>2020-09-28T08:34:58Z</time>
      </trkpt>
      <trkpt lat="43.95206" lon="5.11143">
        <ele>346.21</ele>
        <time>2020-09-28T08:35:12Z</time>
      </trkpt>
      <trkpt lat="43.9519" lon="5.11144">
        <ele>346.69</ele>
        <time>2020-09-28T08:35:27Z</time>
      </trkpt>
      <trkpt lat="43.9517" lon="5.11133">
        <ele>348.13</ele>
        <time>2020-09-28T08:35:47Z</time>
      </trkpt>
      <trkpt lat="43.95153" lon="5.11126">
        <ele>346.21</ele>
        <time>2020-09-28T08:36:09Z</time>
      </trkpt>
      <trkpt lat="43.95148" lon="5.11126">
        <ele>345.73</ele>
        <time>2020-09-28T08:36:24Z</time>
      </trkpt>
      <trkpt lat="43.95148" lon="5.11136">
        <ele>347.17</ele>
        <time>2020-09-28T08:36:41Z</time>
      </trkpt>
      <trkpt lat="43.95146" lon="5.11152">
        <ele>349.58</ele>
        <time>2020-09-28T08:37:01Z</time>
      </trkpt>
      <trkpt lat="43.95149" lon="5.11168">
        <ele>351.98</ele>
        <time>2020-09-28T08:37:18Z</time>
      </trkpt>
      <trkpt lat="43.95156" lon="5.11184">
        <ele>354.38</ele>
        <time>2020-09-28T08:37:39Z</time>
      </trkpt>
      <trkpt lat="43.95162" lon="5.11199">
        <ele>356.79</ele>
        <time>2020-09-28T08:37:55Z</time>
      </trkpt>
      <trkpt lat="43.95164" lon="5.11199">
        <ele>357.27</ele>
        <time>2020-09-28T08:37:58Z</time>
      </trkpt>
      <trkpt lat="43.95176" lon="5.11217">
        <ele>359.67</ele>
        <time>2020-09-28T08:38:20Z</time>
      </trkpt>
      <trkpt lat="43.95189" lon="5.11234">
        <ele>361.11</ele>
        <time>2020-09-28T08:38:37Z</time>
      </trkpt>
      <trkpt lat="43.95204" lon="5.11246">
        <ele>364.48</ele>
        <time>2020-09-28T08:38:55Z</time>
      </trkpt>
      <trkpt lat="43.95214" lon="5.11255">
        <ele>365.44</ele>
        <time>2020-09-28T08:39:08Z</time>
      </trkpt>
      <trkpt lat="43.95226" lon="5.11267">
        <ele>367.84</ele>
        <time>2020-09-28T08:39:27Z</time>
      </trkpt>
      <trkpt lat="43.95222" lon="5.11293">
        <ele>371.21</ele>
        <time>2020-09-28T08:39:50Z</time>
      </trkpt>
      <trkpt lat="43.9522" lon="5.11306">
        <ele>372.65</ele>
        <time>2020-09-28T08:40:10Z</time>
      </trkpt>
      <trkpt lat="43.95218" lon="5.11312">
        <ele>373.13</ele>
        <time>2020-09-28T08:40:38Z</time>
      </trkpt>
      <trkpt lat="43.9522" lon="5.1131">
        <ele>373.61</ele>
        <time>2020-09-28T08:41:06Z</time>
      </trkpt>
      <trkpt lat="43.9522" lon="5.11309">
        <ele>373.61</ele>
        <time>2020-09-28T08:41:35Z</time>
      </trkpt>
      <trkpt lat="43.95228" lon="5.11312">
        <ele>373.61</ele>
        <time>2020-09-28T08:42:07Z</time>
      </trkpt>
      <trkpt lat="43.95226" lon="5.11309">
        <ele>373.61</ele>
        <time>2020-09-28T08:42:39Z</time>
      </trkpt>
      <trkpt lat="43.95225" lon="5.11303">
        <ele>373.61</ele>
        <time>2020-09-28T08:43:14Z</time>
      </trkpt>
      <trkpt lat="43.95221" lon="5.11308">
        <ele>373.61</ele>
        <time>2020-09-28T08:43:49Z</time>
      </trkpt>
      <trkpt lat="43.95222" lon="5.11311">
        <ele>373.61</ele>
        <time>2020-09-28T08:44:17Z</time>
      </trkpt>
      <trkpt lat="43.95222" lon="5.11335">
        <ele>376.01</ele>
        <time>2020-09-28T08:44:39Z</time>
      </trkpt>
      <trkpt lat="43.95227" lon="5.11348">
        <ele>378.42</ele>
        <time>2020-09-28T08:44:54Z</time>
      </trkpt>
      <trkpt lat="43.9524" lon="5.11376">
        <ele>380.34</ele>
        <time>2020-09-28T08:45:17Z</time>
      </trkpt>
      <trkpt lat="43.95257" lon="5.11391">
        <ele>381.78</ele>
        <time>2020-09-28T08:45:39Z</time>
      </trkpt>
      <trkpt lat="43.9527" lon="5.11405">
        <ele>382.26</ele>
        <time>2020-09-28T08:45:59Z</time>
      </trkpt>
      <trkpt lat="43.95275" lon="5.11413">
        <ele>383.22</ele>
        <time>2020-09-28T08:46:08Z</time>
      </trkpt>
      <trkpt lat="43.95287" lon="5.11429">
        <ele>385.15</ele>
        <time>2020-09-28T08:46:25Z</time>
      </trkpt>
      <trkpt lat="43.95303" lon="5.11443">
        <ele>386.59</ele>
        <time>2020-09-28T08:46:42Z</time>
      </trkpt>
      <trkpt lat="43.95321" lon="5.11449">
        <ele>388.03</ele>
        <time>2020-09-28T08:46:59Z</time>
      </trkpt>
      <trkpt lat="43.95338" lon="5.11446">
        <ele>389.47</ele>
        <time>2020-09-28T08:47:17Z</time>
      </trkpt>
      <trkpt lat="43.95355" lon="5.11451">
        <ele>390.43</ele>
        <time>2020-09-28T08:47:34Z</time>
      </trkpt>
      <trkpt lat="43.95371" lon="5.11454">
        <ele>391.39</ele>
        <time>2020-09-28T08:47:50Z</time>
      </trkpt>
      <trkpt lat="43.95369" lon="5.11453">
        <ele>391.39</ele>
        <time>2020-09-28T08:48:07Z</time>
      </trkpt>
      <trkpt lat="43.95368" lon="5.11454">
        <ele>391.39</ele>
        <time>2020-09-28T08:48:30Z</time>
      </trkpt>
      <trkpt lat="43.95368" lon="5.11455">
        <ele>391.39</ele>
        <time>2020-09-28T08:49:01Z</time>
      </trkpt>
      <trkpt lat="43.95369" lon="5.11452">
        <ele>391.39</ele>
        <time>2020-09-28T08:49:36Z</time>
      </trkpt>
      <trkpt lat="43.9537" lon="5.11444">
        <ele>391.39</ele>
        <time>2020-09-28T08:50:01Z</time>
      </trkpt>
      <trkpt lat="43.95374" lon="5.11439">
        <ele>391.39</ele>
        <time>2020-09-28T08:50:21Z</time>
      </trkpt>
      <trkpt lat="43.95375" lon="5.11434">
        <ele>391.39</ele>
        <time>2020-09-28T08:50:41Z</time>
      </trkpt>
      <trkpt lat="43.95375" lon="5.11432">
        <ele>391.39</ele>
        <time>2020-09-28T08:50:46Z</time>
      </trkpt>
      <trkpt lat="43.95373" lon="5.11416">
        <ele>390.91</ele>
        <time>2020-09-28T08:51:00Z</time>
      </trkpt>
      <trkpt lat="43.95376" lon="5.1141">
        <ele>390.43</ele>
        <time>2020-09-28T08:51:15Z</time>
      </trkpt>
      <trkpt lat="43.95381" lon="5.11406">
        <ele>390.43</ele>
        <time>2020-09-28T08:51:30Z</time>
      </trkpt>
      <trkpt lat="43.95392" lon="5.11394">
        <ele>390.43</ele>
        <time>2020-09-28T08:51:48Z</time>
      </trkpt>
      <trkpt lat="43.95391" lon="5.11395">
        <ele>390.43</ele>
        <time>2020-09-28T08:52:02Z</time>
      </trkpt>
      <trkpt lat="43.95381" lon="5.11408">
        <ele>389.95</ele>
        <time>2020-09-28T08:52:16Z</time>
      </trkpt>
      <trkpt lat="43.95375" lon="5.1142">
        <ele>390.43</ele>
        <time>2020-09-28T08:52:26Z</time>
      </trkpt>
      <trkpt lat="43.95384" lon="5.11434">
        <ele>391.87</ele>
        <time>2020-09-28T08:52:43Z</time>
      </trkpt>
      <trkpt lat="43.95388" lon="5.11444">
        <ele>392.84</ele>
        <time>2020-09-28T08:52:57Z</time>
      </trkpt>
      <trkpt lat="43.95391" lon="5.11456">
        <ele>392.36</ele>
        <time>2020-09-28T08:53:13Z</time>
      </trkpt>
      <trkpt lat="43.954" lon="5.11465">
        <ele>393.8</ele>
        <time>2020-09-28T08:53:32Z</time>
      </trkpt>
      <trkpt lat="43.95411" lon="5.11467">
        <ele>394.28</ele>
        <time>2020-09-28T08:53:49Z</time>
      </trkpt>
      <trkpt lat="43.95413" lon="5.11466">
        <ele>394.28</ele>
        <time>2020-09-28T08:53:51Z</time>
      </trkpt>
      <trkpt lat="43.95414" lon="5.11462">
        <ele>394.28</ele>
        <time>2020-09-28T08:53:54Z</time>
      </trkpt>
      <trkpt lat="43.95415" lon="5.11449">
        <ele>394.28</ele>
        <time>2020-09-28T08:54:08Z</time>
      </trkpt>
      <trkpt lat="43.95422" lon="5.11457">
        <ele>394.28</ele>
        <time>2020-09-28T08:54:23Z</time>
      </trkpt>
      <trkpt lat="43.95433" lon="5.11462">
        <ele>394.76</ele>
        <time>2020-09-28T08:54:39Z</time>
      </trkpt>
      <trkpt lat="43.95433" lon="5.11462">
        <ele>395.72</ele>
        <time>2020-09-28T08:54:46Z</time>
      </trkpt>
      <trkpt lat="43.95421" lon="5.11462">
        <ele>395.24</ele>
        <time>2020-09-28T08:55:05Z</time>
      </trkpt>
      <trkpt lat="43.95419" lon="5.11466">
        <ele>394.76</ele>
        <time>2020-09-28T08:55:30Z</time>
      </trkpt>
      <trkpt lat="43.95417" lon="5.11471">
        <ele>395.24</ele>
        <time>2020-09-28T08:55:38Z</time>
      </trkpt>
      <trkpt lat="43.95417" lon="5.11473">
        <ele>395.24</ele>
        <time>2020-09-28T08:56:03Z</time>
      </trkpt>
      <trkpt lat="43.95418" lon="5.11473">
        <ele>395.24</ele>
        <time>2020-09-28T08:56:20Z</time>
      </trkpt>
      <trkpt lat="43.95416" lon="5.11476">
        <ele>395.24</ele>
        <time>2020-09-28T08:56:43Z</time>
      </trkpt>
      <trkpt lat="43.95412" lon="5.11486">
        <ele>395.24</ele>
        <time>2020-09-28T08:57:08Z</time>
      </trkpt>
      <trkpt lat="43.95407" lon="5.11498">
        <ele>395.24</ele>
        <time>2020-09-28T08:57:25Z</time>
      </trkpt>
      <trkpt lat="43.95413" lon="5.11512">
        <ele>396.68</ele>
        <time>2020-09-28T08:57:40Z</time>
      </trkpt>
      <trkpt lat="43.95414" lon="5.11514">
        <ele>396.68</ele>
        <time>2020-09-28T08:57:55Z</time>
      </trkpt>
      <trkpt lat="43.9541" lon="5.11519">
        <ele>398.12</ele>
        <time>2020-09-28T08:58:11Z</time>
      </trkpt>
      <trkpt lat="43.95405" lon="5.11518">
        <ele>396.2</ele>
        <time>2020-09-28T08:58:31Z</time>
      </trkpt>
      <trkpt lat="43.95399" lon="5.11522">
        <ele>396.68</ele>
        <time>2020-09-28T08:58:58Z</time>
      </trkpt>
      <trkpt lat="43.95396" lon="5.11525">
        <ele>396.2</ele>
        <time>2020-09-28T08:59:14Z</time>
      </trkpt>
      <trkpt lat="43.9539" lon="5.1153">
        <ele>396.68</ele>
        <time>2020-09-28T08:59:34Z</time>
      </trkpt>
      <trkpt lat="43.95398" lon="5.11528">
        <ele>396.68</ele>
        <time>2020-09-28T08:59:51Z</time>
      </trkpt>
      <trkpt lat="43.95403" lon="5.11535">
        <ele>397.16</ele>
        <time>2020-09-28T09:00:08Z</time>
      </trkpt>
      <trkpt lat="43.95396" lon="5.11543">
        <ele>397.64</ele>
        <time>2020-09-28T09:00:30Z</time>
      </trkpt>
      <trkpt lat="43.95395" lon="5.11543">
        <ele>396.68</ele>
        <time>2020-09-28T09:00:55Z</time>
      </trkpt>
      <trkpt lat="43.95396" lon="5.11545">
        <ele>397.64</ele>
        <time>2020-09-28T09:01:19Z</time>
      </trkpt>
      <trkpt lat="43.95394" lon="5.11547">
        <ele>398.12</ele>
        <time>2020-09-28T09:01:39Z</time>
      </trkpt>
      <trkpt lat="43.95382" lon="5.11558">
        <ele>397.64</ele>
        <time>2020-09-28T09:01:51Z</time>
      </trkpt>
      <trkpt lat="43.95371" lon="5.11568">
        <ele>397.16</ele>
        <time>2020-09-28T09:02:03Z</time>
      </trkpt>
      <trkpt lat="43.9536" lon="5.11581">
        <ele>397.64</ele>
        <time>2020-09-28T09:02:17Z</time>
      </trkpt>
      <trkpt lat="43.95359" lon="5.11594">
        <ele>397.64</ele>
        <time>2020-09-28T09:02:33Z</time>
      </trkpt>
      <trkpt lat="43.95364" lon="5.1161">
        <ele>398.6</ele>
        <time>2020-09-28T09:02:50Z</time>
      </trkpt>
      <trkpt lat="43.95367" lon="5.11614">
        <ele>398.6</ele>
        <time>2020-09-28T09:02:54Z</time>
      </trkpt>
      <trkpt lat="43.95371" lon="5.11619">
        <ele>398.6</ele>
        <time>2020-09-28T09:02:59Z</time>
      </trkpt>
      <trkpt lat="43.95375" lon="5.11633">
        <ele>400.05</ele>
        <time>2020-09-28T09:03:12Z</time>
      </trkpt>
      <trkpt lat="43.95364" lon="5.11648">
        <ele>401.49</ele>
        <time>2020-09-28T09:03:30Z</time>
      </trkpt>
      <trkpt lat="43.95351" lon="5.11658">
        <ele>401.49</ele>
        <time>2020-09-28T09:03:46Z</time>
      </trkpt>
      <trkpt lat="43.95349" lon="5.11659">
        <ele>401.49</ele>
        <time>2020-09-28T09:03:47Z</time>
      </trkpt>
      <trkpt lat="43.95337" lon="5.11667">
        <ele>401.01</ele>
        <time>2020-09-28T09:04:04Z</time>
      </trkpt>
      <trkpt lat="43.95322" lon="5.11676">
        <ele>401.01</ele>
        <time>2020-09-28T09:04:23Z</time>
      </trkpt>
      <trkpt lat="43.95312" lon="5.11689">
        <ele>401.01</ele>
        <time>2020-09-28T09:04:37Z</time>
      </trkpt>
      <trkpt lat="43.95303" lon="5.11702">
        <ele>401.97</ele>
        <time>2020-09-28T09:04:52Z</time>
      </trkpt>
      <trkpt lat="43.95289" lon="5.11719">
        <ele>401.97</ele>
        <time>2020-09-28T09:05:15Z</time>
      </trkpt>
      <trkpt lat="43.95279" lon="5.11737">
        <ele>401.97</ele>
        <time>2020-09-28T09:05:36Z</time>
      </trkpt>
      <trkpt lat="43.95274" lon="5.11749">
        <ele>401.97</ele>
        <time>2020-09-28T09:05:51Z</time>
      </trkpt>
      <trkpt lat="43.95273" lon="5.11755">
        <ele>401.49</ele>
        <time>2020-09-28T09:06:19Z</time>
      </trkpt>
      <trkpt lat="43.95273" lon="5.11759">
        <ele>401.49</ele>
        <time>2020-09-28T09:06:51Z</time>
      </trkpt>
      <trkpt lat="43.95271" lon="5.11759">
        <ele>401.49</ele>
        <time>2020-09-28T09:07:23Z</time>
      </trkpt>
      <trkpt lat="43.95269" lon="5.11759">
        <ele>401.49</ele>
        <time>2020-09-28T09:07:56Z</time>
      </trkpt>
      <trkpt lat="43.95272" lon="5.11762">
        <ele>401.49</ele>
        <time>2020-09-28T09:08:23Z</time>
      </trkpt>
      <trkpt lat="43.95278" lon="5.11776">
        <ele>401.49</ele>
        <time>2020-09-28T09:08:41Z</time>
      </trkpt>
      <trkpt lat="43.95288" lon="5.11799">
        <ele>404.37</ele>
        <time>2020-09-28T09:09:03Z</time>
      </trkpt>
      <trkpt lat="43.95303" lon="5.11812">
        <ele>406.29</ele>
        <time>2020-09-28T09:09:20Z</time>
      </trkpt>
      <trkpt lat="43.95316" lon="5.11825">
        <ele>409.18</ele>
        <time>2020-09-28T09:09:38Z</time>
      </trkpt>
      <trkpt lat="43.95329" lon="5.11838">
        <ele>411.58</ele>
        <time>2020-09-28T09:09:59Z</time>
      </trkpt>
      <trkpt lat="43.95344" lon="5.11852">
        <ele>414.47</ele>
        <time>2020-09-28T09:10:24Z</time>
      </trkpt>
      <trkpt lat="43.95354" lon="5.1186">
        <ele>417.35</ele>
        <time>2020-09-28T09:10:46Z</time>
      </trkpt>
      <trkpt lat="43.95366" lon="5.11854">
        <ele>420.71</ele>
        <time>2020-09-28T09:11:03Z</time>
      </trkpt>
      <trkpt lat="43.95379" lon="5.11857">
        <ele>423.12</ele>
        <time>2020-09-28T09:11:23Z</time>
      </trkpt>
      <trkpt lat="43.95387" lon="5.11866">
        <ele>426</ele>
        <time>2020-09-28T09:11:37Z</time>
      </trkpt>
      <trkpt lat="43.95392" lon="5.1187">
        <ele>427.44</ele>
        <time>2020-09-28T09:11:43Z</time>
      </trkpt>
      <trkpt lat="43.95407" lon="5.11884">
        <ele>430.81</ele>
        <time>2020-09-28T09:12:02Z</time>
      </trkpt>
      <trkpt lat="43.95415" lon="5.11895">
        <ele>433.69</ele>
        <time>2020-09-28T09:12:16Z</time>
      </trkpt>
      <trkpt lat="43.95424" lon="5.11912">
        <ele>436.1</ele>
        <time>2020-09-28T09:12:37Z</time>
      </trkpt>
      <trkpt lat="43.95434" lon="5.11933">
        <ele>438.5</ele>
        <time>2020-09-28T09:12:57Z</time>
      </trkpt>
      <trkpt lat="43.95444" lon="5.11952">
        <ele>441.38</ele>
        <time>2020-09-28T09:13:16Z</time>
      </trkpt>
      <trkpt lat="43.95457" lon="5.11972">
        <ele>444.75</ele>
        <time>2020-09-28T09:13:36Z</time>
      </trkpt>
      <trkpt lat="43.9547" lon="5.11988">
        <ele>447.63</ele>
        <time>2020-09-28T09:13:55Z</time>
      </trkpt>
      <trkpt lat="43.95483" lon="5.12002">
        <ele>449.55</ele>
        <time>2020-09-28T09:14:11Z</time>
      </trkpt>
      <trkpt lat="43.95493" lon="5.12013">
        <ele>451.96</ele>
        <time>2020-09-28T09:14:30Z</time>
      </trkpt>
      <trkpt lat="43.95491" lon="5.12016">
        <ele>451.96</ele>
        <time>2020-09-28T09:14:51Z</time>
      </trkpt>
      <trkpt lat="43.95486" lon="5.12016">
        <ele>450.03</ele>
        <time>2020-09-28T09:15:04Z</time>
      </trkpt>
      <trkpt lat="43.95484" lon="5.12018">
        <ele>449.07</ele>
        <time>2020-09-28T09:15:35Z</time>
      </trkpt>
      <trkpt lat="43.95484" lon="5.12019">
        <ele>449.55</ele>
        <time>2020-09-28T09:17:04Z</time>
      </trkpt>
      <trkpt lat="43.95484" lon="5.1202">
        <ele>449.55</ele>
        <time>2020-09-28T09:17:37Z</time>
      </trkpt>
      <trkpt lat="43.95485" lon="5.12022">
        <ele>449.55</ele>
        <time>2020-09-28T09:18:16Z</time>
      </trkpt>
      <trkpt lat="43.95485" lon="5.12022">
        <ele>449.55</ele>
        <time>2020-09-28T09:18:49Z</time>
      </trkpt>
      <trkpt lat="43.9548" lon="5.12022">
        <ele>449.55</ele>
        <time>2020-09-28T09:19:19Z</time>
      </trkpt>
      <trkpt lat="43.95486" lon="5.12021">
        <ele>449.55</ele>
        <time>2020-09-28T09:19:49Z</time>
      </trkpt>
      <trkpt lat="43.95488" lon="5.12017">
        <ele>449.55</ele>
        <time>2020-09-28T09:20:20Z</time>
      </trkpt>
      <trkpt lat="43.95476" lon="5.12017">
        <ele>449.55</ele>
        <time>2020-09-28T09:20:44Z</time>
      </trkpt>
      <trkpt lat="43.95476" lon="5.12025">
        <ele>449.55</ele>
        <time>2020-09-28T09:21:02Z</time>
      </trkpt>
      <trkpt lat="43.95471" lon="5.1204">
        <ele>449.55</ele>
        <time>2020-09-28T09:21:23Z</time>
      </trkpt>
      <trkpt lat="43.95469" lon="5.12051">
        <ele>441.86</ele>
        <time>2020-09-28T09:21:35Z</time>
      </trkpt>
      <trkpt lat="43.9547" lon="5.12052">
        <ele>441.86</ele>
        <time>2020-09-28T09:21:36Z</time>
      </trkpt>
      <trkpt lat="43.95471" lon="5.12076">
        <ele>441.38</ele>
        <time>2020-09-28T09:21:59Z</time>
      </trkpt>
      <trkpt lat="43.95465" lon="5.12092">
        <ele>439.94</ele>
        <time>2020-09-28T09:22:19Z</time>
      </trkpt>
      <trkpt lat="43.95449" lon="5.12102">
        <ele>437.06</ele>
        <time>2020-09-28T09:22:39Z</time>
      </trkpt>
      <trkpt lat="43.95434" lon="5.12115">
        <ele>434.65</ele>
        <time>2020-09-28T09:22:59Z</time>
      </trkpt>
      <trkpt lat="43.95421" lon="5.12117">
        <ele>431.77</ele>
        <time>2020-09-28T09:23:18Z</time>
      </trkpt>
      <trkpt lat="43.95413" lon="5.12116">
        <ele>428.89</ele>
        <time>2020-09-28T09:23:39Z</time>
      </trkpt>
      <trkpt lat="43.95408" lon="5.12119">
        <ele>428.4</ele>
        <time>2020-09-28T09:24:08Z</time>
      </trkpt>
      <trkpt lat="43.95415" lon="5.12119">
        <ele>429.85</ele>
        <time>2020-09-28T09:24:23Z</time>
      </trkpt>
      <trkpt lat="43.95422" lon="5.12122">
        <ele>431.77</ele>
        <time>2020-09-28T09:24:37Z</time>
      </trkpt>
      <trkpt lat="43.95426" lon="5.12122">
        <ele>432.73</ele>
        <time>2020-09-28T09:25:00Z</time>
      </trkpt>
      <trkpt lat="43.95428" lon="5.12123">
        <ele>432.25</ele>
        <time>2020-09-28T09:25:32Z</time>
      </trkpt>
      <trkpt lat="43.95426" lon="5.12121">
        <ele>432.25</ele>
        <time>2020-09-28T09:26:03Z</time>
      </trkpt>
      <trkpt lat="43.95426" lon="5.1212">
        <ele>432.25</ele>
        <time>2020-09-28T09:26:31Z</time>
      </trkpt>
      <trkpt lat="43.95421" lon="5.12118">
        <ele>432.25</ele>
        <time>2020-09-28T09:26:59Z</time>
      </trkpt>
      <trkpt lat="43.95421" lon="5.12117">
        <ele>432.25</ele>
        <time>2020-09-28T09:27:27Z</time>
      </trkpt>
      <trkpt lat="43.95419" lon="5.12116">
        <ele>432.25</ele>
        <time>2020-09-28T09:28:00Z</time>
      </trkpt>
      <trkpt lat="43.95416" lon="5.12115">
        <ele>432.25</ele>
        <time>2020-09-28T09:28:21Z</time>
      </trkpt>
      <trkpt lat="43.95411" lon="5.12117">
        <ele>429.37</ele>
        <time>2020-09-28T09:28:31Z</time>
      </trkpt>
      <trkpt lat="43.95409" lon="5.12114">
        <ele>426.96</ele>
        <time>2020-09-28T09:28:52Z</time>
      </trkpt>
      <trkpt lat="43.95407" lon="5.12108">
        <ele>424.08</ele>
        <time>2020-09-28T09:29:02Z</time>
      </trkpt>
      <trkpt lat="43.95398" lon="5.12102">
        <ele>421.19</ele>
        <time>2020-09-28T09:29:18Z</time>
      </trkpt>
      <trkpt lat="43.95397" lon="5.12091">
        <ele>418.79</ele>
        <time>2020-09-28T09:29:41Z</time>
      </trkpt>
      <trkpt lat="43.95399" lon="5.12083">
        <ele>415.91</ele>
        <time>2020-09-28T09:30:01Z</time>
      </trkpt>
      <trkpt lat="43.95397" lon="5.12074">
        <ele>413.02</ele>
        <time>2020-09-28T09:30:11Z</time>
      </trkpt>
      <trkpt lat="43.95397" lon="5.12062">
        <ele>412.06</ele>
        <time>2020-09-28T09:30:33Z</time>
      </trkpt>
      <trkpt lat="43.95392" lon="5.12059">
        <ele>410.62</ele>
        <time>2020-09-28T09:30:45Z</time>
      </trkpt>
      <trkpt lat="43.95389" lon="5.12075">
        <ele>410.62</ele>
        <time>2020-09-28T09:30:59Z</time>
      </trkpt>
      <trkpt lat="43.95381" lon="5.12081">
        <ele>412.06</ele>
        <time>2020-09-28T09:31:20Z</time>
      </trkpt>
      <trkpt lat="43.95377" lon="5.12085">
        <ele>411.58</ele>
        <time>2020-09-28T09:31:54Z</time>
      </trkpt>
      <trkpt lat="43.95371" lon="5.12086">
        <ele>411.58</ele>
        <time>2020-09-28T09:32:17Z</time>
      </trkpt>
      <trkpt lat="43.95372" lon="5.12084">
        <ele>411.58</ele>
        <time>2020-09-28T09:32:46Z</time>
      </trkpt>
      <trkpt lat="43.95359" lon="5.12078">
        <ele>411.1</ele>
        <time>2020-09-28T09:33:00Z</time>
      </trkpt>
      <trkpt lat="43.95337" lon="5.12078">
        <ele>410.14</ele>
        <time>2020-09-28T09:33:17Z</time>
      </trkpt>
      <trkpt lat="43.95317" lon="5.12076">
        <ele>407.74</ele>
        <time>2020-09-28T09:33:37Z</time>
      </trkpt>
      <trkpt lat="43.95298" lon="5.12072">
        <ele>406.29</ele>
        <time>2020-09-28T09:33:54Z</time>
      </trkpt>
      <trkpt lat="43.95288" lon="5.12074">
        <ele>405.33</ele>
        <time>2020-09-28T09:34:03Z</time>
      </trkpt>
      <trkpt lat="43.95285" lon="5.12074">
        <ele>404.85</ele>
        <time>2020-09-28T09:34:06Z</time>
      </trkpt>
      <trkpt lat="43.95267" lon="5.12073">
        <ele>402.93</ele>
        <time>2020-09-28T09:34:23Z</time>
      </trkpt>
      <trkpt lat="43.95248" lon="5.12077">
        <ele>401.01</ele>
        <time>2020-09-28T09:34:43Z</time>
      </trkpt>
      <trkpt lat="43.95236" lon="5.12083">
        <ele>399.57</ele>
        <time>2020-09-28T09:34:59Z</time>
      </trkpt>
      <trkpt lat="43.95224" lon="5.12088">
        <ele>398.12</ele>
        <time>2020-09-28T09:35:19Z</time>
      </trkpt>
      <trkpt lat="43.95208" lon="5.12096">
        <ele>396.2</ele>
        <time>2020-09-28T09:35:37Z</time>
      </trkpt>
      <trkpt lat="43.95195" lon="5.12112">
        <ele>394.28</ele>
        <time>2020-09-28T09:35:59Z</time>
      </trkpt>
      <trkpt lat="43.95183" lon="5.12138">
        <ele>392.84</ele>
        <time>2020-09-28T09:36:25Z</time>
      </trkpt>
      <trkpt lat="43.95181" lon="5.12145">
        <ele>392.84</ele>
        <time>2020-09-28T09:36:30Z</time>
      </trkpt>
      <trkpt lat="43.95169" lon="5.1217">
        <ele>392.36</ele>
        <time>2020-09-28T09:36:50Z</time>
      </trkpt>
      <trkpt lat="43.95154" lon="5.12189">
        <ele>392.36</ele>
        <time>2020-09-28T09:37:10Z</time>
      </trkpt>
      <trkpt lat="43.95143" lon="5.12202">
        <ele>391.39</ele>
        <time>2020-09-28T09:37:29Z</time>
      </trkpt>
      <trkpt lat="43.95134" lon="5.12213">
        <ele>391.87</ele>
        <time>2020-09-28T09:37:49Z</time>
      </trkpt>
      <trkpt lat="43.95124" lon="5.12232">
        <ele>391.87</ele>
        <time>2020-09-28T09:38:07Z</time>
      </trkpt>
      <trkpt lat="43.9512" lon="5.12245">
        <ele>392.36</ele>
        <time>2020-09-28T09:38:18Z</time>
      </trkpt>
      <trkpt lat="43.95122" lon="5.12273">
        <ele>392.84</ele>
        <time>2020-09-28T09:38:39Z</time>
      </trkpt>
      <trkpt lat="43.95127" lon="5.12283">
        <ele>393.32</ele>
        <time>2020-09-28T09:38:48Z</time>
      </trkpt>
      <trkpt lat="43.95142" lon="5.12298">
        <ele>394.76</ele>
        <time>2020-09-28T09:39:07Z</time>
      </trkpt>
      <trkpt lat="43.95158" lon="5.12302">
        <ele>396.2</ele>
        <time>2020-09-28T09:39:29Z</time>
      </trkpt>
      <trkpt lat="43.95174" lon="5.12305">
        <ele>396.2</ele>
        <time>2020-09-28T09:39:49Z</time>
      </trkpt>
      <trkpt lat="43.95177" lon="5.12311">
        <ele>394.76</ele>
        <time>2020-09-28T09:40:10Z</time>
      </trkpt>
      <trkpt lat="43.95177" lon="5.12315">
        <ele>392.36</ele>
        <time>2020-09-28T09:40:29Z</time>
      </trkpt>
      <trkpt lat="43.95178" lon="5.12316">
        <ele>392.36</ele>
        <time>2020-09-28T09:41:03Z</time>
      </trkpt>
      <trkpt lat="43.95179" lon="5.12314">
        <ele>391.87</ele>
        <time>2020-09-28T09:41:32Z</time>
      </trkpt>
      <trkpt lat="43.95179" lon="5.12313">
        <ele>391.87</ele>
        <time>2020-09-28T09:41:59Z</time>
      </trkpt>
      <trkpt lat="43.95178" lon="5.12314">
        <ele>392.36</ele>
        <time>2020-09-28T09:42:24Z</time>
      </trkpt>
      <trkpt lat="43.9518" lon="5.12311">
        <ele>392.36</ele>
        <time>2020-09-28T09:42:55Z</time>
      </trkpt>
      <trkpt lat="43.95177" lon="5.12312">
        <ele>392.36</ele>
        <time>2020-09-28T09:43:25Z</time>
      </trkpt>
      <trkpt lat="43.95179" lon="5.12321">
        <ele>392.36</ele>
        <time>2020-09-28T09:43:55Z</time>
      </trkpt>
      <trkpt lat="43.9518" lon="5.12328">
        <ele>388.99</ele>
        <time>2020-09-28T09:44:06Z</time>
      </trkpt>
      <trkpt lat="43.9518" lon="5.12328">
        <ele>388.99</ele>
        <time>2020-09-28T09:44:07Z</time>
      </trkpt>
      <trkpt lat="43.95183" lon="5.12332">
        <ele>387.07</ele>
        <time>2020-09-28T09:44:31Z</time>
      </trkpt>
      <trkpt lat="43.95174" lon="5.12338">
        <ele>384.18</ele>
        <time>2020-09-28T09:44:49Z</time>
      </trkpt>
      <trkpt lat="43.95177" lon="5.12352">
        <ele>380.82</ele>
        <time>2020-09-28T09:45:05Z</time>
      </trkpt>
      <trkpt lat="43.95173" lon="5.12361">
        <ele>377.94</ele>
        <time>2020-09-28T09:45:22Z</time>
      </trkpt>
      <trkpt lat="43.95176" lon="5.12371">
        <ele>375.05</ele>
        <time>2020-09-28T09:45:38Z</time>
      </trkpt>
      <trkpt lat="43.95178" lon="5.12379">
        <ele>371.69</ele>
        <time>2020-09-28T09:45:53Z</time>
      </trkpt>
      <trkpt lat="43.95179" lon="5.12396">
        <ele>368.8</ele>
        <time>2020-09-28T09:46:06Z</time>
      </trkpt>
      <trkpt lat="43.95176" lon="5.12415">
        <ele>365.44</ele>
        <time>2020-09-28T09:46:21Z</time>
      </trkpt>
      <trkpt lat="43.95164" lon="5.12413">
        <ele>363.04</ele>
        <time>2020-09-28T09:46:40Z</time>
      </trkpt>
      <trkpt lat="43.95153" lon="5.12424">
        <ele>360.63</ele>
        <time>2020-09-28T09:47:01Z</time>
      </trkpt>
      <trkpt lat="43.95144" lon="5.12435">
        <ele>361.59</ele>
        <time>2020-09-28T09:47:21Z</time>
      </trkpt>
      <trkpt lat="43.95149" lon="5.12434">
        <ele>361.59</ele>
        <time>2020-09-28T09:47:40Z</time>
      </trkpt>
      <trkpt lat="43.9515" lon="5.1243">
        <ele>361.59</ele>
        <time>2020-09-28T09:47:54Z</time>
      </trkpt>
      <trkpt lat="43.95155" lon="5.12433">
        <ele>361.59</ele>
        <time>2020-09-28T09:48:27Z</time>
      </trkpt>
      <trkpt lat="43.95148" lon="5.1243">
        <ele>361.59</ele>
        <time>2020-09-28T09:49:00Z</time>
      </trkpt>
      <trkpt lat="43.95152" lon="5.12428">
        <ele>361.59</ele>
        <time>2020-09-28T09:49:32Z</time>
      </trkpt>
      <trkpt lat="43.95153" lon="5.12431">
        <ele>361.59</ele>
        <time>2020-09-28T09:50:04Z</time>
      </trkpt>
      <trkpt lat="43.9515" lon="5.12434">
        <ele>361.59</ele>
        <time>2020-09-28T09:50:37Z</time>
      </trkpt>
      <trkpt lat="43.95149" lon="5.12426">
        <ele>361.59</ele>
        <time>2020-09-28T09:51:02Z</time>
      </trkpt>
      <trkpt lat="43.95151" lon="5.12421">
        <ele>361.59</ele>
        <time>2020-09-28T09:51:33Z</time>
      </trkpt>
      <trkpt lat="43.95148" lon="5.12427">
        <ele>361.59</ele>
        <time>2020-09-28T09:52:03Z</time>
      </trkpt>
      <trkpt lat="43.95148" lon="5.12426">
        <ele>361.59</ele>
        <time>2020-09-28T09:52:31Z</time>
      </trkpt>
      <trkpt lat="43.95146" lon="5.12429">
        <ele>361.59</ele>
        <time>2020-09-28T09:52:55Z</time>
      </trkpt>
      <trkpt lat="43.9516" lon="5.12442">
        <ele>361.59</ele>
        <time>2020-09-28T09:53:15Z</time>
      </trkpt>
      <trkpt lat="43.95161" lon="5.12443">
        <ele>361.59</ele>
        <time>2020-09-28T09:53:16Z</time>
      </trkpt>
      <trkpt lat="43.95167" lon="5.12446">
        <ele>361.59</ele>
        <time>2020-09-28T09:53:21Z</time>
      </trkpt>
      <trkpt lat="43.95186" lon="5.12465">
        <ele>364.48</ele>
        <time>2020-09-28T09:53:46Z</time>
      </trkpt>
      <trkpt lat="43.95203" lon="5.12483">
        <ele>367.36</ele>
        <time>2020-09-28T09:54:09Z</time>
      </trkpt>
      <trkpt lat="43.9521" lon="5.12483">
        <ele>367.36</ele>
        <time>2020-09-28T09:54:17Z</time>
      </trkpt>
      <trkpt lat="43.95225" lon="5.12479">
        <ele>369.28</ele>
        <time>2020-09-28T09:54:34Z</time>
      </trkpt>
      <trkpt lat="43.9523" lon="5.12481">
        <ele>369.76</ele>
        <time>2020-09-28T09:54:39Z</time>
      </trkpt>
      <trkpt lat="43.95246" lon="5.12491">
        <ele>371.21</ele>
        <time>2020-09-28T09:54:54Z</time>
      </trkpt>
      <trkpt lat="43.95261" lon="5.12509">
        <ele>372.65</ele>
        <time>2020-09-28T09:55:17Z</time>
      </trkpt>
      <trkpt lat="43.9528" lon="5.12516">
        <ele>374.57</ele>
        <time>2020-09-28T09:55:40Z</time>
      </trkpt>
      <trkpt lat="43.95291" lon="5.12533">
        <ele>376.01</ele>
        <time>2020-09-28T09:55:59Z</time>
      </trkpt>
      <trkpt lat="43.95306" lon="5.12549">
        <ele>378.9</ele>
        <time>2020-09-28T09:56:23Z</time>
      </trkpt>
      <trkpt lat="43.95316" lon="5.1256">
        <ele>380.82</ele>
        <time>2020-09-28T09:56:41Z</time>
      </trkpt>
      <trkpt lat="43.95326" lon="5.12572">
        <ele>382.26</ele>
        <time>2020-09-28T09:57:03Z</time>
      </trkpt>
      <trkpt lat="43.95342" lon="5.12584">
        <ele>385.15</ele>
        <time>2020-09-28T09:57:28Z</time>
      </trkpt>
      <trkpt lat="43.95357" lon="5.126">
        <ele>387.55</ele>
        <time>2020-09-28T09:57:51Z</time>
      </trkpt>
      <trkpt lat="43.95372" lon="5.12602">
        <ele>388.51</ele>
        <time>2020-09-28T09:58:12Z</time>
      </trkpt>
      <trkpt lat="43.95385" lon="5.12602">
        <ele>390.43</ele>
        <time>2020-09-28T09:58:32Z</time>
      </trkpt>
      <trkpt lat="43.95402" lon="5.12615">
        <ele>392.84</ele>
        <time>2020-09-28T09:58:54Z</time>
      </trkpt>
      <trkpt lat="43.95416" lon="5.12626">
        <ele>396.2</ele>
        <time>2020-09-28T09:59:13Z</time>
      </trkpt>
      <trkpt lat="43.95436" lon="5.12644">
        <ele>397.16</ele>
        <time>2020-09-28T09:59:35Z</time>
      </trkpt>
      <trkpt lat="43.95441" lon="5.12656">
        <ele>397.64</ele>
        <time>2020-09-28T09:59:48Z</time>
      </trkpt>
      <trkpt lat="43.95449" lon="5.12673">
        <ele>399.57</ele>
        <time>2020-09-28T10:00:08Z</time>
      </trkpt>
      <trkpt lat="43.95457" lon="5.127">
        <ele>401.49</ele>
        <time>2020-09-28T10:00:31Z</time>
      </trkpt>
      <trkpt lat="43.95461" lon="5.12722">
        <ele>404.37</ele>
        <time>2020-09-28T10:00:51Z</time>
      </trkpt>
      <trkpt lat="43.95466" lon="5.12743">
        <ele>406.29</ele>
        <time>2020-09-28T10:01:12Z</time>
      </trkpt>
      <trkpt lat="43.95468" lon="5.1277">
        <ele>409.18</ele>
        <time>2020-09-28T10:01:33Z</time>
      </trkpt>
      <trkpt lat="43.95472" lon="5.12789">
        <ele>412.06</ele>
        <time>2020-09-28T10:01:50Z</time>
      </trkpt>
      <trkpt lat="43.95472" lon="5.12807">
        <ele>415.43</ele>
        <time>2020-09-28T10:02:07Z</time>
      </trkpt>
      <trkpt lat="43.95472" lon="5.12825">
        <ele>418.79</ele>
        <time>2020-09-28T10:02:26Z</time>
      </trkpt>
      <trkpt lat="43.95474" lon="5.12841">
        <ele>421.68</ele>
        <time>2020-09-28T10:02:42Z</time>
      </trkpt>
      <trkpt lat="43.95474" lon="5.12855">
        <ele>422.16</ele>
        <time>2020-09-28T10:02:57Z</time>
      </trkpt>
      <trkpt lat="43.95477" lon="5.12869">
        <ele>425.52</ele>
        <time>2020-09-28T10:03:16Z</time>
      </trkpt>
      <trkpt lat="43.9548" lon="5.12886">
        <ele>428.4</ele>
        <time>2020-09-28T10:03:35Z</time>
      </trkpt>
      <trkpt lat="43.95478" lon="5.12903">
        <ele>431.29</ele>
        <time>2020-09-28T10:03:53Z</time>
      </trkpt>
      <trkpt lat="43.95472" lon="5.12917">
        <ele>434.17</ele>
        <time>2020-09-28T10:04:14Z</time>
      </trkpt>
      <trkpt lat="43.95468" lon="5.1293">
        <ele>436.58</ele>
        <time>2020-09-28T10:04:38Z</time>
      </trkpt>
      <trkpt lat="43.95471" lon="5.12948">
        <ele>439.46</ele>
        <time>2020-09-28T10:04:54Z</time>
      </trkpt>
      <trkpt lat="43.95472" lon="5.12956">
        <ele>440.42</ele>
        <time>2020-09-28T10:05:01Z</time>
      </trkpt>
      <trkpt lat="43.95481" lon="5.12967">
        <ele>442.82</ele>
        <time>2020-09-28T10:05:16Z</time>
      </trkpt>
      <trkpt lat="43.95484" lon="5.12958">
        <ele>443.31</ele>
        <time>2020-09-28T10:05:35Z</time>
      </trkpt>
      <trkpt lat="43.95484" lon="5.12956">
        <ele>443.31</ele>
        <time>2020-09-28T10:06:01Z</time>
      </trkpt>
      <trkpt lat="43.95485" lon="5.12956">
        <ele>443.31</ele>
        <time>2020-09-28T10:06:37Z</time>
      </trkpt>
      <trkpt lat="43.95485" lon="5.12957">
        <ele>443.31</ele>
        <time>2020-09-28T10:07:08Z</time>
      </trkpt>
      <trkpt lat="43.95484" lon="5.12959">
        <ele>443.31</ele>
        <time>2020-09-28T10:08:09Z</time>
      </trkpt>
      <trkpt lat="43.95485" lon="5.12957">
        <ele>443.31</ele>
        <time>2020-09-28T10:09:05Z</time>
      </trkpt>
      <trkpt lat="43.95485" lon="5.12957">
        <ele>443.31</ele>
        <time>2020-09-28T10:11:10Z</time>
      </trkpt>
      <trkpt lat="43.95486" lon="5.1296">
        <ele>443.31</ele>
        <time>2020-09-28T10:12:02Z</time>
      </trkpt>
      <trkpt lat="43.95484" lon="5.12959">
        <ele>443.31</ele>
        <time>2020-09-28T10:12:35Z</time>
      </trkpt>
      <trkpt lat="43.95482" lon="5.12955">
        <ele>443.31</ele>
        <time>2020-09-28T10:13:02Z</time>
      </trkpt>
      <trkpt lat="43.95481" lon="5.1295">
        <ele>443.31</ele>
        <time>2020-09-28T10:13:30Z</time>
      </trkpt>
      <trkpt lat="43.95483" lon="5.12946">
        <ele>443.31</ele>
        <time>2020-09-28T10:13:34Z</time>
      </trkpt>
      <trkpt lat="43.95484" lon="5.12942">
        <ele>443.31</ele>
        <time>2020-09-28T10:13:37Z</time>
      </trkpt>
      <trkpt lat="43.95492" lon="5.1292">
        <ele>442.82</ele>
        <time>2020-09-28T10:13:53Z</time>
      </trkpt>
      <trkpt lat="43.95503" lon="5.12904">
        <ele>442.82</ele>
        <time>2020-09-28T10:14:07Z</time>
      </trkpt>
      <trkpt lat="43.95506" lon="5.12885">
        <ele>442.82</ele>
        <time>2020-09-28T10:14:20Z</time>
      </trkpt>
      <trkpt lat="43.9551" lon="5.12872">
        <ele>442.82</ele>
        <time>2020-09-28T10:14:31Z</time>
      </trkpt>
      <trkpt lat="43.95516" lon="5.1284">
        <ele>441.38</ele>
        <time>2020-09-28T10:14:50Z</time>
      </trkpt>
      <trkpt lat="43.95518" lon="5.12811">
        <ele>441.38</ele>
        <time>2020-09-28T10:15:08Z</time>
      </trkpt>
      <trkpt lat="43.9552" lon="5.12805">
        <ele>441.86</ele>
        <time>2020-09-28T10:15:13Z</time>
      </trkpt>
      <trkpt lat="43.95522" lon="5.12799">
        <ele>441.86</ele>
        <time>2020-09-28T10:15:17Z</time>
      </trkpt>
      <trkpt lat="43.95522" lon="5.12796">
        <ele>441.86</ele>
        <time>2020-09-28T10:15:19Z</time>
      </trkpt>
      <trkpt lat="43.95522" lon="5.12791">
        <ele>441.86</ele>
        <time>2020-09-28T10:15:22Z</time>
      </trkpt>
      <trkpt lat="43.95528" lon="5.12766">
        <ele>442.34</ele>
        <time>2020-09-28T10:15:38Z</time>
      </trkpt>
      <trkpt lat="43.95529" lon="5.12765">
        <ele>442.34</ele>
        <time>2020-09-28T10:15:39Z</time>
      </trkpt>
      <trkpt lat="43.95533" lon="5.12743">
        <ele>442.82</ele>
        <time>2020-09-28T10:15:54Z</time>
      </trkpt>
      <trkpt lat="43.95534" lon="5.12715">
        <ele>444.27</ele>
        <time>2020-09-28T10:16:12Z</time>
      </trkpt>
      <trkpt lat="43.95536" lon="5.12695">
        <ele>445.23</ele>
        <time>2020-09-28T10:16:25Z</time>
      </trkpt>
      <trkpt lat="43.95542" lon="5.12669">
        <ele>447.15</ele>
        <time>2020-09-28T10:16:44Z</time>
      </trkpt>
      <trkpt lat="43.95544" lon="5.12649">
        <ele>448.11</ele>
        <time>2020-09-28T10:16:59Z</time>
      </trkpt>
      <trkpt lat="43.95544" lon="5.12626">
        <ele>449.55</ele>
        <time>2020-09-28T10:17:14Z</time>
      </trkpt>
      <trkpt lat="43.95542" lon="5.12603">
        <ele>450.52</ele>
        <time>2020-09-28T10:17:30Z</time>
      </trkpt>
      <trkpt lat="43.95543" lon="5.12584">
        <ele>452.44</ele>
        <time>2020-09-28T10:17:45Z</time>
      </trkpt>
      <trkpt lat="43.95544" lon="5.12559">
        <ele>453.4</ele>
        <time>2020-09-28T10:18:04Z</time>
      </trkpt>
      <trkpt lat="43.95545" lon="5.12537">
        <ele>454.36</ele>
        <time>2020-09-28T10:18:21Z</time>
      </trkpt>
      <trkpt lat="43.95549" lon="5.12521">
        <ele>455.8</ele>
        <time>2020-09-28T10:18:37Z</time>
      </trkpt>
      <trkpt lat="43.95549" lon="5.12504">
        <ele>454.84</ele>
        <time>2020-09-28T10:18:57Z</time>
      </trkpt>
      <trkpt lat="43.95552" lon="5.12487">
        <ele>454.84</ele>
        <time>2020-09-28T10:19:19Z</time>
      </trkpt>
      <trkpt lat="43.95552" lon="5.12487">
        <ele>455.32</ele>
        <time>2020-09-28T10:19:39Z</time>
      </trkpt>
      <trkpt lat="43.95551" lon="5.12487">
        <ele>455.32</ele>
        <time>2020-09-28T10:20:03Z</time>
      </trkpt>
      <trkpt lat="43.95553" lon="5.12484">
        <ele>455.32</ele>
        <time>2020-09-28T10:20:23Z</time>
      </trkpt>
      <trkpt lat="43.95558" lon="5.12465">
        <ele>455.32</ele>
        <time>2020-09-28T10:20:44Z</time>
      </trkpt>
      <trkpt lat="43.95558" lon="5.12466">
        <ele>455.32</ele>
        <time>2020-09-28T10:21:06Z</time>
      </trkpt>
      <trkpt lat="43.95559" lon="5.12467">
        <ele>455.32</ele>
        <time>2020-09-28T10:21:36Z</time>
      </trkpt>
      <trkpt lat="43.95559" lon="5.12469">
        <ele>455.32</ele>
        <time>2020-09-28T10:22:10Z</time>
      </trkpt>
      <trkpt lat="43.95558" lon="5.12469">
        <ele>455.32</ele>
        <time>2020-09-28T10:24:04Z</time>
      </trkpt>
      <trkpt lat="43.95559" lon="5.1247">
        <ele>455.32</ele>
        <time>2020-09-28T10:24:39Z</time>
      </trkpt>
      <trkpt lat="43.95561" lon="5.12469">
        <ele>455.32</ele>
        <time>2020-09-28T10:25:09Z</time>
      </trkpt>
      <trkpt lat="43.95558" lon="5.12468">
        <ele>455.32</ele>
        <time>2020-09-28T10:25:35Z</time>
      </trkpt>
      <trkpt lat="43.95563" lon="5.12471">
        <ele>455.32</ele>
        <time>2020-09-28T10:26:05Z</time>
      </trkpt>
      <trkpt lat="43.95567" lon="5.12475">
        <ele>455.32</ele>
        <time>2020-09-28T10:26:50Z</time>
      </trkpt>
      <trkpt lat="43.95563" lon="5.12471">
        <ele>455.32</ele>
        <time>2020-09-28T10:27:24Z</time>
      </trkpt>
      <trkpt lat="43.95559" lon="5.12467">
        <ele>455.32</ele>
        <time>2020-09-28T10:27:51Z</time>
      </trkpt>
      <trkpt lat="43.95557" lon="5.12466">
        <ele>455.32</ele>
        <time>2020-09-28T10:28:24Z</time>
      </trkpt>
      <trkpt lat="43.95558" lon="5.12468">
        <ele>455.32</ele>
        <time>2020-09-28T10:28:57Z</time>
      </trkpt>
      <trkpt lat="43.95558" lon="5.12469">
        <ele>455.32</ele>
        <time>2020-09-28T10:29:29Z</time>
      </trkpt>
      <trkpt lat="43.9556" lon="5.1247">
        <ele>453.88</ele>
        <time>2020-09-28T10:29:59Z</time>
      </trkpt>
      <trkpt lat="43.9556" lon="5.12471">
        <ele>453.88</ele>
        <time>2020-09-28T10:30:37Z</time>
      </trkpt>
      <trkpt lat="43.95559" lon="5.12469">
        <ele>453.88</ele>
        <time>2020-09-28T10:31:09Z</time>
      </trkpt>
      <trkpt lat="43.95561" lon="5.1247">
        <ele>453.88</ele>
        <time>2020-09-28T10:31:46Z</time>
      </trkpt>
      <trkpt lat="43.95559" lon="5.12465">
        <ele>453.88</ele>
        <time>2020-09-28T10:32:22Z</time>
      </trkpt>
      <trkpt lat="43.95558" lon="5.12465">
        <ele>453.88</ele>
        <time>2020-09-28T10:32:55Z</time>
      </trkpt>
      <trkpt lat="43.95558" lon="5.12466">
        <ele>453.88</ele>
        <time>2020-09-28T10:33:32Z</time>
      </trkpt>
      <trkpt lat="43.95558" lon="5.12465">
        <ele>453.88</ele>
        <time>2020-09-28T10:34:07Z</time>
      </trkpt>
      <trkpt lat="43.95561" lon="5.12469">
        <ele>453.88</ele>
        <time>2020-09-28T10:34:55Z</time>
      </trkpt>
      <trkpt lat="43.95559" lon="5.12468">
        <ele>453.88</ele>
        <time>2020-09-28T10:35:33Z</time>
      </trkpt>
      <trkpt lat="43.95559" lon="5.12468">
        <ele>453.88</ele>
        <time>2020-09-28T10:36:34Z</time>
      </trkpt>
      <trkpt lat="43.9556" lon="5.1247">
        <ele>453.88</ele>
        <time>2020-09-28T10:37:06Z</time>
      </trkpt>
      <trkpt lat="43.95558" lon="5.12469">
        <ele>453.88</ele>
        <time>2020-09-28T10:37:40Z</time>
      </trkpt>
      <trkpt lat="43.95557" lon="5.12468">
        <ele>453.88</ele>
        <time>2020-09-28T10:38:17Z</time>
      </trkpt>
      <trkpt lat="43.95556" lon="5.12468">
        <ele>453.88</ele>
        <time>2020-09-28T10:38:49Z</time>
      </trkpt>
      <trkpt lat="43.95558" lon="5.1247">
        <ele>453.88</ele>
        <time>2020-09-28T10:39:20Z</time>
      </trkpt>
      <trkpt lat="43.9556" lon="5.12472">
        <ele>453.88</ele>
        <time>2020-09-28T10:39:57Z</time>
      </trkpt>
      <trkpt lat="43.95558" lon="5.12468">
        <ele>453.88</ele>
        <time>2020-09-28T10:40:33Z</time>
      </trkpt>
      <trkpt lat="43.95558" lon="5.12466">
        <ele>453.88</ele>
        <time>2020-09-28T10:41:07Z</time>
      </trkpt>
      <trkpt lat="43.95557" lon="5.12464">
        <ele>453.88</ele>
        <time>2020-09-28T10:41:41Z</time>
      </trkpt>
      <trkpt lat="43.95557" lon="5.12461">
        <ele>453.88</ele>
        <time>2020-09-28T10:42:12Z</time>
      </trkpt>
      <trkpt lat="43.95556" lon="5.12457">
        <ele>453.88</ele>
        <time>2020-09-28T10:42:45Z</time>
      </trkpt>
      <trkpt lat="43.95557" lon="5.12463">
        <ele>453.88</ele>
        <time>2020-09-28T10:43:20Z</time>
      </trkpt>
      <trkpt lat="43.95558" lon="5.12467">
        <ele>453.88</ele>
        <time>2020-09-28T10:43:55Z</time>
      </trkpt>
      <trkpt lat="43.95559" lon="5.12472">
        <ele>453.88</ele>
        <time>2020-09-28T10:44:29Z</time>
      </trkpt>
      <trkpt lat="43.95558" lon="5.12468">
        <ele>453.88</ele>
        <time>2020-09-28T10:45:02Z</time>
      </trkpt>
      <trkpt lat="43.95559" lon="5.12469">
        <ele>453.88</ele>
        <time>2020-09-28T10:45:38Z</time>
      </trkpt>
      <trkpt lat="43.95558" lon="5.12469">
        <ele>453.88</ele>
        <time>2020-09-28T10:46:12Z</time>
      </trkpt>
      <trkpt lat="43.95556" lon="5.12467">
        <ele>453.88</ele>
        <time>2020-09-28T10:46:46Z</time>
      </trkpt>
      <trkpt lat="43.95556" lon="5.12466">
        <ele>453.88</ele>
        <time>2020-09-28T10:47:25Z</time>
      </trkpt>
      <trkpt lat="43.95557" lon="5.12468">
        <ele>453.88</ele>
        <time>2020-09-28T10:48:08Z</time>
      </trkpt>
      <trkpt lat="43.95556" lon="5.12467">
        <ele>453.88</ele>
        <time>2020-09-28T10:48:46Z</time>
      </trkpt>
      <trkpt lat="43.95556" lon="5.12467">
        <ele>453.88</ele>
        <time>2020-09-28T10:49:22Z</time>
      </trkpt>
      <trkpt lat="43.95556" lon="5.12466">
        <ele>453.88</ele>
        <time>2020-09-28T10:49:59Z</time>
      </trkpt>
      <trkpt lat="43.95556" lon="5.12466">
        <ele>453.88</ele>
        <time>2020-09-28T10:50:35Z</time>
      </trkpt>
      <trkpt lat="43.95557" lon="5.12467">
        <ele>453.88</ele>
        <time>2020-09-28T10:51:08Z</time>
      </trkpt>
      <trkpt lat="43.9556" lon="5.1247">
        <ele>453.88</ele>
        <time>2020-09-28T10:51:40Z</time>
      </trkpt>
      <trkpt lat="43.95559" lon="5.12468">
        <ele>453.88</ele>
        <time>2020-09-28T10:52:11Z</time>
      </trkpt>
      <trkpt lat="43.95557" lon="5.12467">
        <ele>453.88</ele>
        <time>2020-09-28T10:52:45Z</time>
      </trkpt>
      <trkpt lat="43.95557" lon="5.12467">
        <ele>453.88</ele>
        <time>2020-09-28T10:53:15Z</time>
      </trkpt>
      <trkpt lat="43.95557" lon="5.12469">
        <ele>453.88</ele>
        <time>2020-09-28T10:53:50Z</time>
      </trkpt>
      <trkpt lat="43.95558" lon="5.12469">
        <ele>453.88</ele>
        <time>2020-09-28T10:54:25Z</time>
      </trkpt>
      <trkpt lat="43.9556" lon="5.1247">
        <ele>453.88</ele>
        <time>2020-09-28T10:55:00Z</time>
      </trkpt>
      <trkpt lat="43.95559" lon="5.12471">
        <ele>453.88</ele>
        <time>2020-09-28T10:55:32Z</time>
      </trkpt>
      <trkpt lat="43.95559" lon="5.12469">
        <ele>453.88</ele>
        <time>2020-09-28T10:56:19Z</time>
      </trkpt>
      <trkpt lat="43.95558" lon="5.12471">
        <ele>453.88</ele>
        <time>2020-09-28T10:56:44Z</time>
      </trkpt>
      <trkpt lat="43.95557" lon="5.1247">
        <ele>453.88</ele>
        <time>2020-09-28T10:57:01Z</time>
      </trkpt>
      <trkpt lat="43.95556" lon="5.12468">
        <ele>453.88</ele>
        <time>2020-09-28T10:57:26Z</time>
      </trkpt>
      <trkpt lat="43.95557" lon="5.12467">
        <ele>453.88</ele>
        <time>2020-09-28T10:58:10Z</time>
      </trkpt>
      <trkpt lat="43.95556" lon="5.12469">
        <ele>453.88</ele>
        <time>2020-09-28T10:58:39Z</time>
      </trkpt>
      <trkpt lat="43.95556" lon="5.12467">
        <ele>453.88</ele>
        <time>2020-09-28T10:59:08Z</time>
      </trkpt>
      <trkpt lat="43.95557" lon="5.12466">
        <ele>453.88</ele>
        <time>2020-09-28T10:59:31Z</time>
      </trkpt>
      <trkpt lat="43.95555" lon="5.1245">
        <ele>455.8</ele>
        <time>2020-09-28T10:59:54Z</time>
      </trkpt>
      <trkpt lat="43.95555" lon="5.12447">
        <ele>455.8</ele>
        <time>2020-09-28T10:59:56Z</time>
      </trkpt>
      <trkpt lat="43.95553" lon="5.12424">
        <ele>457.24</ele>
        <time>2020-09-28T11:00:15Z</time>
      </trkpt>
      <trkpt lat="43.95554" lon="5.12414">
        <ele>457.72</ele>
        <time>2020-09-28T11:00:23Z</time>
      </trkpt>
      <trkpt lat="43.95561" lon="5.12387">
        <ele>459.17</ele>
        <time>2020-09-28T11:00:41Z</time>
      </trkpt>
      <trkpt lat="43.95564" lon="5.12364">
        <ele>458.69</ele>
        <time>2020-09-28T11:00:57Z</time>
      </trkpt>
      <trkpt lat="43.95566" lon="5.12356">
        <ele>459.17</ele>
        <time>2020-09-28T11:01:05Z</time>
      </trkpt>
      <trkpt lat="43.95568" lon="5.12328">
        <ele>459.17</ele>
        <time>2020-09-28T11:01:22Z</time>
      </trkpt>
      <trkpt lat="43.95567" lon="5.12314">
        <ele>459.17</ele>
        <time>2020-09-28T11:01:37Z</time>
      </trkpt>
      <trkpt lat="43.95564" lon="5.123">
        <ele>459.65</ele>
        <time>2020-09-28T11:01:44Z</time>
      </trkpt>
      <trkpt lat="43.95578" lon="5.12275">
        <ele>460.61</ele>
        <time>2020-09-28T11:02:02Z</time>
      </trkpt>
      <trkpt lat="43.95581" lon="5.12267">
        <ele>460.13</ele>
        <time>2020-09-28T11:02:08Z</time>
      </trkpt>
      <trkpt lat="43.95593" lon="5.12247">
        <ele>461.57</ele>
        <time>2020-09-28T11:02:27Z</time>
      </trkpt>
      <trkpt lat="43.95605" lon="5.12235">
        <ele>462.05</ele>
        <time>2020-09-28T11:02:44Z</time>
      </trkpt>
      <trkpt lat="43.95608" lon="5.12229">
        <ele>462.53</ele>
        <time>2020-09-28T11:02:49Z</time>
      </trkpt>
      <trkpt lat="43.95618" lon="5.1221">
        <ele>463.49</ele>
        <time>2020-09-28T11:03:06Z</time>
      </trkpt>
      <trkpt lat="43.95629" lon="5.122">
        <ele>464.93</ele>
        <time>2020-09-28T11:03:22Z</time>
      </trkpt>
      <trkpt lat="43.95634" lon="5.1218">
        <ele>466.38</ele>
        <time>2020-09-28T11:03:37Z</time>
      </trkpt>
      <trkpt lat="43.95638" lon="5.12172">
        <ele>466.86</ele>
        <time>2020-09-28T11:03:43Z</time>
      </trkpt>
      <trkpt lat="43.9565" lon="5.12152">
        <ele>467.34</ele>
        <time>2020-09-28T11:04:05Z</time>
      </trkpt>
      <trkpt lat="43.95661" lon="5.12127">
        <ele>465.42</ele>
        <time>2020-09-28T11:04:26Z</time>
      </trkpt>
      <trkpt lat="43.95674" lon="5.12105">
        <ele>465.42</ele>
        <time>2020-09-28T11:04:45Z</time>
      </trkpt>
      <trkpt lat="43.95689" lon="5.12085">
        <ele>464.93</ele>
        <time>2020-09-28T11:05:04Z</time>
      </trkpt>
      <trkpt lat="43.95696" lon="5.1208">
        <ele>466.38</ele>
        <time>2020-09-28T11:05:13Z</time>
      </trkpt>
      <trkpt lat="43.95708" lon="5.12069">
        <ele>465.9</ele>
        <time>2020-09-28T11:05:28Z</time>
      </trkpt>
      <trkpt lat="43.95711" lon="5.12066">
        <ele>465.9</ele>
        <time>2020-09-28T11:05:31Z</time>
      </trkpt>
      <trkpt lat="43.95713" lon="5.12064">
        <ele>465.9</ele>
        <time>2020-09-28T11:05:33Z</time>
      </trkpt>
      <trkpt lat="43.95727" lon="5.12049">
        <ele>466.38</ele>
        <time>2020-09-28T11:05:48Z</time>
      </trkpt>
      <trkpt lat="43.95729" lon="5.12046">
        <ele>466.38</ele>
        <time>2020-09-28T11:05:51Z</time>
      </trkpt>
      <trkpt lat="43.95739" lon="5.12024">
        <ele>465.9</ele>
        <time>2020-09-28T11:06:08Z</time>
      </trkpt>
      <trkpt lat="43.95755" lon="5.12011">
        <ele>466.38</ele>
        <time>2020-09-28T11:06:24Z</time>
      </trkpt>
      <trkpt lat="43.95777" lon="5.11993">
        <ele>467.82</ele>
        <time>2020-09-28T11:06:46Z</time>
      </trkpt>
      <trkpt lat="43.95778" lon="5.11991">
        <ele>467.82</ele>
        <time>2020-09-28T11:06:48Z</time>
      </trkpt>
      <trkpt lat="43.95794" lon="5.11971">
        <ele>468.78</ele>
        <time>2020-09-28T11:07:07Z</time>
      </trkpt>
      <trkpt lat="43.95803" lon="5.11966">
        <ele>468.78</ele>
        <time>2020-09-28T11:07:17Z</time>
      </trkpt>
      <trkpt lat="43.95818" lon="5.11956">
        <ele>468.78</ele>
        <time>2020-09-28T11:07:33Z</time>
      </trkpt>
      <trkpt lat="43.95829" lon="5.11948">
        <ele>466.86</ele>
        <time>2020-09-28T11:07:47Z</time>
      </trkpt>
      <trkpt lat="43.95843" lon="5.11938">
        <ele>463.97</ele>
        <time>2020-09-28T11:08:05Z</time>
      </trkpt>
      <trkpt lat="43.95864" lon="5.11937">
        <ele>463.01</ele>
        <time>2020-09-28T11:08:27Z</time>
      </trkpt>
      <trkpt lat="43.95882" lon="5.11933">
        <ele>461.09</ele>
        <time>2020-09-28T11:08:47Z</time>
      </trkpt>
      <trkpt lat="43.95891" lon="5.11931">
        <ele>460.13</ele>
        <time>2020-09-28T11:08:59Z</time>
      </trkpt>
      <trkpt lat="43.95907" lon="5.11922">
        <ele>458.21</ele>
        <time>2020-09-28T11:09:23Z</time>
      </trkpt>
      <trkpt lat="43.95922" lon="5.11912">
        <ele>456.28</ele>
        <time>2020-09-28T11:09:39Z</time>
      </trkpt>
      <trkpt lat="43.95927" lon="5.11909">
        <ele>455.8</ele>
        <time>2020-09-28T11:09:43Z</time>
      </trkpt>
      <trkpt lat="43.95944" lon="5.11894">
        <ele>453.88</ele>
        <time>2020-09-28T11:10:01Z</time>
      </trkpt>
      <trkpt lat="43.9596" lon="5.11881">
        <ele>452.44</ele>
        <time>2020-09-28T11:10:19Z</time>
      </trkpt>
      <trkpt lat="43.95974" lon="5.11865">
        <ele>449.55</ele>
        <time>2020-09-28T11:10:41Z</time>
      </trkpt>
      <trkpt lat="43.95982" lon="5.11852">
        <ele>447.63</ele>
        <time>2020-09-28T11:10:59Z</time>
      </trkpt>
      <trkpt lat="43.95982" lon="5.11851">
        <ele>445.71</ele>
        <time>2020-09-28T11:11:32Z</time>
      </trkpt>
      <trkpt lat="43.95994" lon="5.11844">
        <ele>444.75</ele>
        <time>2020-09-28T11:11:57Z</time>
      </trkpt>
      <trkpt lat="43.96008" lon="5.11829">
        <ele>441.86</ele>
        <time>2020-09-28T11:12:19Z</time>
      </trkpt>
      <trkpt lat="43.96018" lon="5.11817">
        <ele>438.98</ele>
        <time>2020-09-28T11:12:35Z</time>
      </trkpt>
      <trkpt lat="43.96029" lon="5.1181">
        <ele>435.61</ele>
        <time>2020-09-28T11:12:51Z</time>
      </trkpt>
      <trkpt lat="43.96036" lon="5.11799">
        <ele>432.73</ele>
        <time>2020-09-28T11:13:06Z</time>
      </trkpt>
      <trkpt lat="43.96045" lon="5.11788">
        <ele>429.37</ele>
        <time>2020-09-28T11:13:22Z</time>
      </trkpt>
      <trkpt lat="43.96054" lon="5.11774">
        <ele>426.96</ele>
        <time>2020-09-28T11:13:44Z</time>
      </trkpt>
      <trkpt lat="43.96066" lon="5.11761">
        <ele>424.08</ele>
        <time>2020-09-28T11:14:02Z</time>
      </trkpt>
      <trkpt lat="43.96079" lon="5.11754">
        <ele>422.16</ele>
        <time>2020-09-28T11:14:20Z</time>
      </trkpt>
      <trkpt lat="43.96083" lon="5.11754">
        <ele>423.12</ele>
        <time>2020-09-28T11:14:46Z</time>
      </trkpt>
      <trkpt lat="43.96086" lon="5.1176">
        <ele>422.16</ele>
        <time>2020-09-28T11:15:10Z</time>
      </trkpt>
      <trkpt lat="43.96084" lon="5.11762">
        <ele>421.68</ele>
        <time>2020-09-28T11:15:40Z</time>
      </trkpt>
      <trkpt lat="43.96088" lon="5.11757">
        <ele>421.19</ele>
        <time>2020-09-28T11:15:46Z</time>
      </trkpt>
      <trkpt lat="43.96101" lon="5.11757">
        <ele>421.19</ele>
        <time>2020-09-28T11:16:03Z</time>
      </trkpt>
      <trkpt lat="43.96117" lon="5.1176">
        <ele>419.75</ele>
        <time>2020-09-28T11:16:23Z</time>
      </trkpt>
      <trkpt lat="43.96126" lon="5.1176">
        <ele>418.31</ele>
        <time>2020-09-28T11:16:35Z</time>
      </trkpt>
      <trkpt lat="43.96132" lon="5.11759">
        <ele>417.83</ele>
        <time>2020-09-28T11:16:41Z</time>
      </trkpt>
      <trkpt lat="43.9615" lon="5.11759">
        <ele>414.95</ele>
        <time>2020-09-28T11:16:58Z</time>
      </trkpt>
      <trkpt lat="43.96165" lon="5.11756">
        <ele>413.98</ele>
        <time>2020-09-28T11:17:13Z</time>
      </trkpt>
      <trkpt lat="43.96168" lon="5.11755">
        <ele>413.98</ele>
        <time>2020-09-28T11:17:16Z</time>
      </trkpt>
      <trkpt lat="43.96184" lon="5.11749">
        <ele>413.5</ele>
        <time>2020-09-28T11:17:33Z</time>
      </trkpt>
      <trkpt lat="43.96202" lon="5.11744">
        <ele>413.02</ele>
        <time>2020-09-28T11:17:50Z</time>
      </trkpt>
      <trkpt lat="43.96221" lon="5.11734">
        <ele>413.02</ele>
        <time>2020-09-28T11:18:07Z</time>
      </trkpt>
      <trkpt lat="43.96241" lon="5.11724">
        <ele>412.54</ele>
        <time>2020-09-28T11:18:26Z</time>
      </trkpt>
      <trkpt lat="43.96253" lon="5.11714">
        <ele>412.06</ele>
        <time>2020-09-28T11:18:41Z</time>
      </trkpt>
      <trkpt lat="43.96265" lon="5.11699">
        <ele>411.58</ele>
        <time>2020-09-28T11:18:58Z</time>
      </trkpt>
      <trkpt lat="43.96282" lon="5.11681">
        <ele>410.14</ele>
        <time>2020-09-28T11:19:19Z</time>
      </trkpt>
      <trkpt lat="43.96298" lon="5.11665">
        <ele>409.18</ele>
        <time>2020-09-28T11:19:37Z</time>
      </trkpt>
      <trkpt lat="43.96313" lon="5.11648">
        <ele>408.7</ele>
        <time>2020-09-28T11:19:54Z</time>
      </trkpt>
      <trkpt lat="43.96324" lon="5.11629">
        <ele>408.22</ele>
        <time>2020-09-28T11:20:11Z</time>
      </trkpt>
      <trkpt lat="43.96339" lon="5.11605">
        <ele>407.26</ele>
        <time>2020-09-28T11:20:32Z</time>
      </trkpt>
      <trkpt lat="43.96352" lon="5.11581">
        <ele>406.29</ele>
        <time>2020-09-28T11:20:53Z</time>
      </trkpt>
      <trkpt lat="43.96361" lon="5.11561">
        <ele>406.29</ele>
        <time>2020-09-28T11:21:12Z</time>
      </trkpt>
      <trkpt lat="43.96366" lon="5.11551">
        <ele>404.85</ele>
        <time>2020-09-28T11:21:32Z</time>
      </trkpt>
      <trkpt lat="43.96376" lon="5.11528">
        <ele>402.93</ele>
        <time>2020-09-28T11:21:52Z</time>
      </trkpt>
      <trkpt lat="43.96387" lon="5.1151">
        <ele>401.49</ele>
        <time>2020-09-28T11:22:09Z</time>
      </trkpt>
      <trkpt lat="43.964" lon="5.11495">
        <ele>400.53</ele>
        <time>2020-09-28T11:22:27Z</time>
      </trkpt>
      <trkpt lat="43.96402" lon="5.11492">
        <ele>399.08</ele>
        <time>2020-09-28T11:22:30Z</time>
      </trkpt>
      <trkpt lat="43.96419" lon="5.11476">
        <ele>398.6</ele>
        <time>2020-09-28T11:22:49Z</time>
      </trkpt>
      <trkpt lat="43.96432" lon="5.11465">
        <ele>398.6</ele>
        <time>2020-09-28T11:23:06Z</time>
      </trkpt>
      <trkpt lat="43.96437" lon="5.11437">
        <ele>397.16</ele>
        <time>2020-09-28T11:23:27Z</time>
      </trkpt>
      <trkpt lat="43.96425" lon="5.11419">
        <ele>397.16</ele>
        <time>2020-09-28T11:23:44Z</time>
      </trkpt>
      <trkpt lat="43.96422" lon="5.11414">
        <ele>397.16</ele>
        <time>2020-09-28T11:23:48Z</time>
      </trkpt>
      <trkpt lat="43.96423" lon="5.1141">
        <ele>396.68</ele>
        <time>2020-09-28T11:23:52Z</time>
      </trkpt>
      <trkpt lat="43.96424" lon="5.11407">
        <ele>396.2</ele>
        <time>2020-09-28T11:23:54Z</time>
      </trkpt>
      <trkpt lat="43.96428" lon="5.11377">
        <ele>395.24</ele>
        <time>2020-09-28T11:24:12Z</time>
      </trkpt>
      <trkpt lat="43.96435" lon="5.11356">
        <ele>393.8</ele>
        <time>2020-09-28T11:24:28Z</time>
      </trkpt>
      <trkpt lat="43.96439" lon="5.11346">
        <ele>393.8</ele>
        <time>2020-09-28T11:24:36Z</time>
      </trkpt>
      <trkpt lat="43.96443" lon="5.11319">
        <ele>393.32</ele>
        <time>2020-09-28T11:24:51Z</time>
      </trkpt>
      <trkpt lat="43.96455" lon="5.113">
        <ele>392.84</ele>
        <time>2020-09-28T11:25:10Z</time>
      </trkpt>
      <trkpt lat="43.96461" lon="5.11292">
        <ele>389.47</ele>
        <time>2020-09-28T11:25:23Z</time>
      </trkpt>
      <trkpt lat="43.96475" lon="5.11281">
        <ele>388.51</ele>
        <time>2020-09-28T11:25:42Z</time>
      </trkpt>
      <trkpt lat="43.96487" lon="5.11262">
        <ele>385.63</ele>
        <time>2020-09-28T11:26:03Z</time>
      </trkpt>
      <trkpt lat="43.96502" lon="5.11238">
        <ele>384.18</ele>
        <time>2020-09-28T11:26:27Z</time>
      </trkpt>
      <trkpt lat="43.96521" lon="5.11221">
        <ele>381.78</ele>
        <time>2020-09-28T11:26:49Z</time>
      </trkpt>
      <trkpt lat="43.96522" lon="5.11219">
        <ele>381.78</ele>
        <time>2020-09-28T11:26:50Z</time>
      </trkpt>
      <trkpt lat="43.96529" lon="5.11208">
        <ele>381.3</ele>
        <time>2020-09-28T11:27:11Z</time>
      </trkpt>
      <trkpt lat="43.96528" lon="5.11209">
        <ele>381.78</ele>
        <time>2020-09-28T11:27:24Z</time>
      </trkpt>
      <trkpt lat="43.96532" lon="5.11204">
        <ele>380.82</ele>
        <time>2020-09-28T11:27:49Z</time>
      </trkpt>
      <trkpt lat="43.96547" lon="5.1119">
        <ele>380.82</ele>
        <time>2020-09-28T11:28:09Z</time>
      </trkpt>
      <trkpt lat="43.96549" lon="5.11184">
        <ele>380.34</ele>
        <time>2020-09-28T11:28:14Z</time>
      </trkpt>
      <trkpt lat="43.96556" lon="5.11171">
        <ele>379.38</ele>
        <time>2020-09-28T11:28:28Z</time>
      </trkpt>
      <trkpt lat="43.96575" lon="5.11146">
        <ele>378.42</ele>
        <time>2020-09-28T11:28:49Z</time>
      </trkpt>
      <trkpt lat="43.96585" lon="5.11128">
        <ele>377.45</ele>
        <time>2020-09-28T11:29:04Z</time>
      </trkpt>
      <trkpt lat="43.96586" lon="5.11124">
        <ele>377.45</ele>
        <time>2020-09-28T11:29:07Z</time>
      </trkpt>
      <trkpt lat="43.96598" lon="5.11097">
        <ele>376.49</ele>
        <time>2020-09-28T11:29:27Z</time>
      </trkpt>
      <trkpt lat="43.966" lon="5.1109">
        <ele>376.01</ele>
        <time>2020-09-28T11:29:31Z</time>
      </trkpt>
      <trkpt lat="43.96605" lon="5.11069">
        <ele>375.53</ele>
        <time>2020-09-28T11:29:46Z</time>
      </trkpt>
      <trkpt lat="43.96605" lon="5.11067">
        <ele>375.53</ele>
        <time>2020-09-28T11:29:47Z</time>
      </trkpt>
      <trkpt lat="43.9661" lon="5.11052">
        <ele>374.57</ele>
        <time>2020-09-28T11:29:58Z</time>
      </trkpt>
      <trkpt lat="43.96612" lon="5.11046">
        <ele>374.57</ele>
        <time>2020-09-28T11:30:01Z</time>
      </trkpt>
      <trkpt lat="43.96622" lon="5.11017">
        <ele>373.61</ele>
        <time>2020-09-28T11:30:18Z</time>
      </trkpt>
      <trkpt lat="43.96631" lon="5.10993">
        <ele>372.65</ele>
        <time>2020-09-28T11:30:35Z</time>
      </trkpt>
      <trkpt lat="43.96643" lon="5.10981">
        <ele>372.17</ele>
        <time>2020-09-28T11:30:53Z</time>
      </trkpt>
      <trkpt lat="43.96644" lon="5.1098">
        <ele>372.65</ele>
        <time>2020-09-28T11:31:17Z</time>
      </trkpt>
      <trkpt lat="43.96644" lon="5.1098">
        <ele>372.65</ele>
        <time>2020-09-28T11:31:48Z</time>
      </trkpt>
      <trkpt lat="43.96643" lon="5.1098">
        <ele>372.65</ele>
        <time>2020-09-28T11:32:19Z</time>
      </trkpt>
      <trkpt lat="43.96643" lon="5.10985">
        <ele>372.65</ele>
        <time>2020-09-28T11:32:51Z</time>
      </trkpt>
      <trkpt lat="43.96641" lon="5.10984">
        <ele>372.65</ele>
        <time>2020-09-28T11:33:23Z</time>
      </trkpt>
      <trkpt lat="43.9664" lon="5.10984">
        <ele>372.65</ele>
        <time>2020-09-28T11:33:47Z</time>
      </trkpt>
      <trkpt lat="43.96641" lon="5.10984">
        <ele>372.65</ele>
        <time>2020-09-28T11:34:16Z</time>
      </trkpt>
      <trkpt lat="43.96642" lon="5.10981">
        <ele>372.65</ele>
        <time>2020-09-28T11:34:46Z</time>
      </trkpt>
      <trkpt lat="43.96644" lon="5.10981">
        <ele>372.65</ele>
        <time>2020-09-28T11:35:19Z</time>
      </trkpt>
      <trkpt lat="43.96643" lon="5.10979">
        <ele>372.65</ele>
        <time>2020-09-28T11:35:54Z</time>
      </trkpt>
      <trkpt lat="43.96642" lon="5.10981">
        <ele>372.65</ele>
        <time>2020-09-28T11:36:24Z</time>
      </trkpt>
      <trkpt lat="43.96643" lon="5.10979">
        <ele>372.65</ele>
        <time>2020-09-28T11:36:55Z</time>
      </trkpt>
      <trkpt lat="43.96648" lon="5.10966">
        <ele>372.65</ele>
        <time>2020-09-28T11:37:09Z</time>
      </trkpt>
      <trkpt lat="43.96656" lon="5.10956">
        <ele>372.65</ele>
        <time>2020-09-28T11:37:21Z</time>
      </trkpt>
      <trkpt lat="43.96667" lon="5.10938">
        <ele>369.76</ele>
        <time>2020-09-28T11:37:37Z</time>
      </trkpt>
      <trkpt lat="43.96667" lon="5.10937">
        <ele>369.28</ele>
        <time>2020-09-28T11:37:38Z</time>
      </trkpt>
      <trkpt lat="43.9667" lon="5.10932">
        <ele>369.28</ele>
        <time>2020-09-28T11:37:42Z</time>
      </trkpt>
      <trkpt lat="43.9668" lon="5.1091">
        <ele>368.8</ele>
        <time>2020-09-28T11:38:01Z</time>
      </trkpt>
      <trkpt lat="43.96686" lon="5.10899">
        <ele>368.32</ele>
        <time>2020-09-28T11:38:13Z</time>
      </trkpt>
      <trkpt lat="43.96696" lon="5.10879">
        <ele>367.84</ele>
        <time>2020-09-28T11:38:31Z</time>
      </trkpt>
      <trkpt lat="43.96697" lon="5.10878">
        <ele>367.84</ele>
        <time>2020-09-28T11:38:32Z</time>
      </trkpt>
      <trkpt lat="43.967" lon="5.10876">
        <ele>368.32</ele>
        <time>2020-09-28T11:38:35Z</time>
      </trkpt>
      <trkpt lat="43.96711" lon="5.10868">
        <ele>367.36</ele>
        <time>2020-09-28T11:38:45Z</time>
      </trkpt>
      <trkpt lat="43.96718" lon="5.10857">
        <ele>366.4</ele>
        <time>2020-09-28T11:38:55Z</time>
      </trkpt>
      <trkpt lat="43.96732" lon="5.10841">
        <ele>366.4</ele>
        <time>2020-09-28T11:39:13Z</time>
      </trkpt>
      <trkpt lat="43.96743" lon="5.10816">
        <ele>366.4</ele>
        <time>2020-09-28T11:39:32Z</time>
      </trkpt>
      <trkpt lat="43.96748" lon="5.10794">
        <ele>366.4</ele>
        <time>2020-09-28T11:39:48Z</time>
      </trkpt>
      <trkpt lat="43.96748" lon="5.10786">
        <ele>366.4</ele>
        <time>2020-09-28T11:39:52Z</time>
      </trkpt>
      <trkpt lat="43.96754" lon="5.1076">
        <ele>366.88</ele>
        <time>2020-09-28T11:40:09Z</time>
      </trkpt>
      <trkpt lat="43.9676" lon="5.10742">
        <ele>366.4</ele>
        <time>2020-09-28T11:40:23Z</time>
      </trkpt>
      <trkpt lat="43.96775" lon="5.10715">
        <ele>367.36</ele>
        <time>2020-09-28T11:40:44Z</time>
      </trkpt>
      <trkpt lat="43.96779" lon="5.10711">
        <ele>367.36</ele>
        <time>2020-09-28T11:40:59Z</time>
      </trkpt>
      <trkpt lat="43.96779" lon="5.10709">
        <ele>367.36</ele>
        <time>2020-09-28T11:41:25Z</time>
      </trkpt>
      <trkpt lat="43.96781" lon="5.10708">
        <ele>367.36</ele>
        <time>2020-09-28T11:41:28Z</time>
      </trkpt>
      <trkpt lat="43.96794" lon="5.10691">
        <ele>367.36</ele>
        <time>2020-09-28T11:41:49Z</time>
      </trkpt>
      <trkpt lat="43.96791" lon="5.10688">
        <ele>367.36</ele>
        <time>2020-09-28T11:42:14Z</time>
      </trkpt>
      <trkpt lat="43.9679" lon="5.10688">
        <ele>367.36</ele>
        <time>2020-09-28T11:42:32Z</time>
      </trkpt>
      <trkpt lat="43.96801" lon="5.10681">
        <ele>367.36</ele>
        <time>2020-09-28T11:42:51Z</time>
      </trkpt>
      <trkpt lat="43.9681" lon="5.10663">
        <ele>365.92</ele>
        <time>2020-09-28T11:43:07Z</time>
      </trkpt>
      <trkpt lat="43.9681" lon="5.10662">
        <ele>365.92</ele>
        <time>2020-09-28T11:43:08Z</time>
      </trkpt>
      <trkpt lat="43.96822" lon="5.10644">
        <ele>365.44</ele>
        <time>2020-09-28T11:43:25Z</time>
      </trkpt>
      <trkpt lat="43.96824" lon="5.1064">
        <ele>365.44</ele>
        <time>2020-09-28T11:43:28Z</time>
      </trkpt>
      <trkpt lat="43.96829" lon="5.10622">
        <ele>364.48</ele>
        <time>2020-09-28T11:43:44Z</time>
      </trkpt>
      <trkpt lat="43.96827" lon="5.10587">
        <ele>363.52</ele>
        <time>2020-09-28T11:44:05Z</time>
      </trkpt>
      <trkpt lat="43.96827" lon="5.10585">
        <ele>363.52</ele>
        <time>2020-09-28T11:44:06Z</time>
      </trkpt>
      <trkpt lat="43.96823" lon="5.10556">
        <ele>363.04</ele>
        <time>2020-09-28T11:44:25Z</time>
      </trkpt>
      <trkpt lat="43.9682" lon="5.10547">
        <ele>362.55</ele>
        <time>2020-09-28T11:44:43Z</time>
      </trkpt>
      <trkpt lat="43.96817" lon="5.10545">
        <ele>362.55</ele>
        <time>2020-09-28T11:44:48Z</time>
      </trkpt>
      <trkpt lat="43.968" lon="5.10539">
        <ele>361.59</ele>
        <time>2020-09-28T11:45:06Z</time>
      </trkpt>
      <trkpt lat="43.96792" lon="5.10536">
        <ele>361.11</ele>
        <time>2020-09-28T11:45:14Z</time>
      </trkpt>
      <trkpt lat="43.96788" lon="5.10534">
        <ele>361.59</ele>
        <time>2020-09-28T11:45:17Z</time>
      </trkpt>
      <trkpt lat="43.96784" lon="5.10531">
        <ele>361.59</ele>
        <time>2020-09-28T11:45:21Z</time>
      </trkpt>
      <trkpt lat="43.9678" lon="5.10526">
        <ele>361.11</ele>
        <time>2020-09-28T11:45:26Z</time>
      </trkpt>
      <trkpt lat="43.96774" lon="5.10522">
        <ele>360.63</ele>
        <time>2020-09-28T11:45:31Z</time>
      </trkpt>
      <trkpt lat="43.96756" lon="5.10518">
        <ele>360.63</ele>
        <time>2020-09-28T11:45:48Z</time>
      </trkpt>
      <trkpt lat="43.96746" lon="5.10519">
        <ele>360.15</ele>
        <time>2020-09-28T11:45:55Z</time>
      </trkpt>
      <trkpt lat="43.9673" lon="5.1052">
        <ele>359.19</ele>
        <time>2020-09-28T11:46:11Z</time>
      </trkpt>
      <trkpt lat="43.96713" lon="5.10518">
        <ele>358.23</ele>
        <time>2020-09-28T11:46:27Z</time>
      </trkpt>
      <trkpt lat="43.96697" lon="5.10522">
        <ele>355.83</ele>
        <time>2020-09-28T11:46:43Z</time>
      </trkpt>
      <trkpt lat="43.96688" lon="5.10523">
        <ele>355.83</ele>
        <time>2020-09-28T11:46:53Z</time>
      </trkpt>
      <trkpt lat="43.9667" lon="5.10516">
        <ele>354.38</ele>
        <time>2020-09-28T11:47:13Z</time>
      </trkpt>
      <trkpt lat="43.9667" lon="5.10513">
        <ele>354.38</ele>
        <time>2020-09-28T11:47:40Z</time>
      </trkpt>
      <trkpt lat="43.9667" lon="5.10514">
        <ele>353.9</ele>
        <time>2020-09-28T11:48:12Z</time>
      </trkpt>
      <trkpt lat="43.96669" lon="5.10516">
        <ele>353.9</ele>
        <time>2020-09-28T11:48:40Z</time>
      </trkpt>
      <trkpt lat="43.96664" lon="5.10524">
        <ele>353.9</ele>
        <time>2020-09-28T11:48:50Z</time>
      </trkpt>
      <trkpt lat="43.96663" lon="5.10555">
        <ele>353.42</ele>
        <time>2020-09-28T11:49:06Z</time>
      </trkpt>
      <trkpt lat="43.9666" lon="5.10585">
        <ele>352.94</ele>
        <time>2020-09-28T11:49:24Z</time>
      </trkpt>
      <trkpt lat="43.96658" lon="5.10613">
        <ele>351.98</ele>
        <time>2020-09-28T11:49:40Z</time>
      </trkpt>
      <trkpt lat="43.96652" lon="5.10645">
        <ele>351.98</ele>
        <time>2020-09-28T11:49:59Z</time>
      </trkpt>
      <trkpt lat="43.96644" lon="5.10663">
        <ele>351.02</ele>
        <time>2020-09-28T11:50:13Z</time>
      </trkpt>
      <trkpt lat="43.96635" lon="5.10691">
        <ele>353.42</ele>
        <time>2020-09-28T11:50:33Z</time>
      </trkpt>
      <trkpt lat="43.96625" lon="5.10701">
        <ele>353.42</ele>
        <time>2020-09-28T11:50:44Z</time>
      </trkpt>
      <trkpt lat="43.96605" lon="5.10724">
        <ele>353.42</ele>
        <time>2020-09-28T11:51:04Z</time>
      </trkpt>
      <trkpt lat="43.96586" lon="5.10734">
        <ele>354.38</ele>
        <time>2020-09-28T11:51:21Z</time>
      </trkpt>
      <trkpt lat="43.96565" lon="5.10719">
        <ele>353.9</ele>
        <time>2020-09-28T11:51:39Z</time>
      </trkpt>
      <trkpt lat="43.96549" lon="5.1071">
        <ele>353.9</ele>
        <time>2020-09-28T11:51:53Z</time>
      </trkpt>
      <trkpt lat="43.9654" lon="5.10724">
        <ele>354.86</ele>
        <time>2020-09-28T11:52:10Z</time>
      </trkpt>
      <trkpt lat="43.96526" lon="5.10746">
        <ele>356.31</ele>
        <time>2020-09-28T11:52:29Z</time>
      </trkpt>
      <trkpt lat="43.96508" lon="5.10758">
        <ele>355.83</ele>
        <time>2020-09-28T11:52:50Z</time>
      </trkpt>
      <trkpt lat="43.96495" lon="5.10767">
        <ele>355.34</ele>
        <time>2020-09-28T11:53:04Z</time>
      </trkpt>
      <trkpt lat="43.9647" lon="5.10786">
        <ele>355.34</ele>
        <time>2020-09-28T11:53:30Z</time>
      </trkpt>
      <trkpt lat="43.96452" lon="5.10798">
        <ele>356.31</ele>
        <time>2020-09-28T11:53:53Z</time>
      </trkpt>
      <trkpt lat="43.9645" lon="5.10799">
        <ele>355.83</ele>
        <time>2020-09-28T11:54:17Z</time>
      </trkpt>
      <trkpt lat="43.96441" lon="5.10814">
        <ele>356.79</ele>
        <time>2020-09-28T11:54:36Z</time>
      </trkpt>
      <trkpt lat="43.96439" lon="5.1083">
        <ele>357.75</ele>
        <time>2020-09-28T11:54:53Z</time>
      </trkpt>
      <trkpt lat="43.96437" lon="5.10848">
        <ele>359.19</ele>
        <time>2020-09-28T11:55:08Z</time>
      </trkpt>
      <trkpt lat="43.96437" lon="5.10863">
        <ele>359.19</ele>
        <time>2020-09-28T11:55:15Z</time>
      </trkpt>
      <trkpt lat="43.96442" lon="5.10883">
        <ele>360.63</ele>
        <time>2020-09-28T11:55:28Z</time>
      </trkpt>
      <trkpt lat="43.96447" lon="5.10898">
        <ele>361.11</ele>
        <time>2020-09-28T11:55:38Z</time>
      </trkpt>
      <trkpt lat="43.96448" lon="5.10912">
        <ele>362.07</ele>
        <time>2020-09-28T11:55:49Z</time>
      </trkpt>
      <trkpt lat="43.96448" lon="5.10913">
        <ele>362.07</ele>
        <time>2020-09-28T11:55:50Z</time>
      </trkpt>
      <trkpt lat="43.96451" lon="5.10934">
        <ele>363.04</ele>
        <time>2020-09-28T11:56:04Z</time>
      </trkpt>
      <trkpt lat="43.96469" lon="5.10946">
        <ele>366.4</ele>
        <time>2020-09-28T11:56:25Z</time>
      </trkpt>
      <trkpt lat="43.96478" lon="5.10964">
        <ele>367.84</ele>
        <time>2020-09-28T11:56:41Z</time>
      </trkpt>
      <trkpt lat="43.96482" lon="5.1099">
        <ele>369.28</ele>
        <time>2020-09-28T11:56:57Z</time>
      </trkpt>
      <trkpt lat="43.96483" lon="5.10992">
        <ele>369.76</ele>
        <time>2020-09-28T11:56:58Z</time>
      </trkpt>
      <trkpt lat="43.96489" lon="5.11014">
        <ele>370.24</ele>
        <time>2020-09-28T11:57:17Z</time>
      </trkpt>
      <trkpt lat="43.96487" lon="5.1102">
        <ele>370.73</ele>
        <time>2020-09-28T11:57:38Z</time>
      </trkpt>
      <trkpt lat="43.96488" lon="5.1102">
        <ele>369.76</ele>
        <time>2020-09-28T11:58:07Z</time>
      </trkpt>
      <trkpt lat="43.96488" lon="5.1102">
        <ele>369.76</ele>
        <time>2020-09-28T11:58:41Z</time>
      </trkpt>
      <trkpt lat="43.96487" lon="5.11021">
        <ele>369.28</ele>
        <time>2020-09-28T11:59:15Z</time>
      </trkpt>
      <trkpt lat="43.96488" lon="5.11019">
        <ele>369.76</ele>
        <time>2020-09-28T11:59:50Z</time>
      </trkpt>
      <trkpt lat="43.96487" lon="5.11018">
        <ele>369.76</ele>
        <time>2020-09-28T12:00:25Z</time>
      </trkpt>
      <trkpt lat="43.96488" lon="5.1102">
        <ele>369.76</ele>
        <time>2020-09-28T12:00:55Z</time>
      </trkpt>
      <trkpt lat="43.9648" lon="5.1102">
        <ele>369.76</ele>
        <time>2020-09-28T12:01:08Z</time>
      </trkpt>
      <trkpt lat="43.96478" lon="5.11023">
        <ele>369.76</ele>
        <time>2020-09-28T12:01:11Z</time>
      </trkpt>
      <trkpt lat="43.96457" lon="5.11036">
        <ele>370.24</ele>
        <time>2020-09-28T12:01:32Z</time>
      </trkpt>
      <trkpt lat="43.96441" lon="5.11048">
        <ele>369.28</ele>
        <time>2020-09-28T12:01:52Z</time>
      </trkpt>
      <trkpt lat="43.96424" lon="5.11056">
        <ele>369.28</ele>
        <time>2020-09-28T12:02:11Z</time>
      </trkpt>
      <trkpt lat="43.96416" lon="5.11033">
        <ele>369.28</ele>
        <time>2020-09-28T12:02:27Z</time>
      </trkpt>
      <trkpt lat="43.96399" lon="5.11019">
        <ele>368.32</ele>
        <time>2020-09-28T12:02:42Z</time>
      </trkpt>
      <trkpt lat="43.96385" lon="5.1101">
        <ele>367.84</ele>
        <time>2020-09-28T12:02:57Z</time>
      </trkpt>
      <trkpt lat="43.96367" lon="5.10989">
        <ele>367.36</ele>
        <time>2020-09-28T12:03:16Z</time>
      </trkpt>
      <trkpt lat="43.96353" lon="5.10978">
        <ele>367.36</ele>
        <time>2020-09-28T12:03:30Z</time>
      </trkpt>
      <trkpt lat="43.96348" lon="5.10973">
        <ele>366.88</ele>
        <time>2020-09-28T12:03:34Z</time>
      </trkpt>
      <trkpt lat="43.96346" lon="5.10966">
        <ele>365.92</ele>
        <time>2020-09-28T12:03:52Z</time>
      </trkpt>
      <trkpt lat="43.96347" lon="5.10959">
        <ele>366.4</ele>
        <time>2020-09-28T12:03:59Z</time>
      </trkpt>
      <trkpt lat="43.96349" lon="5.1095">
        <ele>365.92</ele>
        <time>2020-09-28T12:04:05Z</time>
      </trkpt>
      <trkpt lat="43.96349" lon="5.10927">
        <ele>365.44</ele>
        <time>2020-09-28T12:04:19Z</time>
      </trkpt>
      <trkpt lat="43.96344" lon="5.109">
        <ele>364.96</ele>
        <time>2020-09-28T12:04:35Z</time>
      </trkpt>
      <trkpt lat="43.96343" lon="5.10887">
        <ele>364</ele>
        <time>2020-09-28T12:04:43Z</time>
      </trkpt>
      <trkpt lat="43.96341" lon="5.1088">
        <ele>363.52</ele>
        <time>2020-09-28T12:04:47Z</time>
      </trkpt>
      <trkpt lat="43.96338" lon="5.10851">
        <ele>362.07</ele>
        <time>2020-09-28T12:05:05Z</time>
      </trkpt>
      <trkpt lat="43.96346" lon="5.10829">
        <ele>359.19</ele>
        <time>2020-09-28T12:05:24Z</time>
      </trkpt>
      <trkpt lat="43.96343" lon="5.10819">
        <ele>359.19</ele>
        <time>2020-09-28T12:05:40Z</time>
      </trkpt>
      <trkpt lat="43.96333" lon="5.10805">
        <ele>356.79</ele>
        <time>2020-09-28T12:06:03Z</time>
      </trkpt>
      <trkpt lat="43.96326" lon="5.10795">
        <ele>353.9</ele>
        <time>2020-09-28T12:06:17Z</time>
      </trkpt>
      <trkpt lat="43.96316" lon="5.10778">
        <ele>351.98</ele>
        <time>2020-09-28T12:06:34Z</time>
      </trkpt>
      <trkpt lat="43.96309" lon="5.10775">
        <ele>350.06</ele>
        <time>2020-09-28T12:06:52Z</time>
      </trkpt>
      <trkpt lat="43.96304" lon="5.10774">
        <ele>348.62</ele>
        <time>2020-09-28T12:07:19Z</time>
      </trkpt>
      <trkpt lat="43.96304" lon="5.10772">
        <ele>348.13</ele>
        <time>2020-09-28T12:07:34Z</time>
      </trkpt>
      <trkpt lat="43.96307" lon="5.10777">
        <ele>349.58</ele>
        <time>2020-09-28T12:07:47Z</time>
      </trkpt>
      <trkpt lat="43.96313" lon="5.10779">
        <ele>351.98</ele>
        <time>2020-09-28T12:08:04Z</time>
      </trkpt>
      <trkpt lat="43.96313" lon="5.10779">
        <ele>351.98</ele>
        <time>2020-09-28T12:08:29Z</time>
      </trkpt>
      <trkpt lat="43.96314" lon="5.10779">
        <ele>351.98</ele>
        <time>2020-09-28T12:08:52Z</time>
      </trkpt>
      <trkpt lat="43.96314" lon="5.10779">
        <ele>351.98</ele>
        <time>2020-09-28T12:09:22Z</time>
      </trkpt>
      <trkpt lat="43.96314" lon="5.1078">
        <ele>351.98</ele>
        <time>2020-09-28T12:09:44Z</time>
      </trkpt>
      <trkpt lat="43.96322" lon="5.10785">
        <ele>351.98</ele>
        <time>2020-09-28T12:10:12Z</time>
      </trkpt>
      <trkpt lat="43.9633" lon="5.10796">
        <ele>353.42</ele>
        <time>2020-09-28T12:10:31Z</time>
      </trkpt>
      <trkpt lat="43.96342" lon="5.10806">
        <ele>356.79</ele>
        <time>2020-09-28T12:10:51Z</time>
      </trkpt>
      <trkpt lat="43.96347" lon="5.10827">
        <ele>358.23</ele>
        <time>2020-09-28T12:11:12Z</time>
      </trkpt>
      <trkpt lat="43.96342" lon="5.10847">
        <ele>360.63</ele>
        <time>2020-09-28T12:11:30Z</time>
      </trkpt>
      <trkpt lat="43.96339" lon="5.10873">
        <ele>362.55</ele>
        <time>2020-09-28T12:11:51Z</time>
      </trkpt>
      <trkpt lat="43.9634" lon="5.1088">
        <ele>363.04</ele>
        <time>2020-09-28T12:11:56Z</time>
      </trkpt>
      <trkpt lat="43.96343" lon="5.10903">
        <ele>364</ele>
        <time>2020-09-28T12:12:10Z</time>
      </trkpt>
      <trkpt lat="43.96343" lon="5.10907">
        <ele>364</ele>
        <time>2020-09-28T12:12:12Z</time>
      </trkpt>
      <trkpt lat="43.96346" lon="5.10934">
        <ele>364.48</ele>
        <time>2020-09-28T12:12:31Z</time>
      </trkpt>
      <trkpt lat="43.96346" lon="5.10963">
        <ele>365.44</ele>
        <time>2020-09-28T12:12:50Z</time>
      </trkpt>
      <trkpt lat="43.96339" lon="5.10967">
        <ele>365.44</ele>
        <time>2020-09-28T12:13:14Z</time>
      </trkpt>
      <trkpt lat="43.96337" lon="5.10966">
        <ele>365.44</ele>
        <time>2020-09-28T12:13:41Z</time>
      </trkpt>
      <trkpt lat="43.96328" lon="5.10967">
        <ele>365.92</ele>
        <time>2020-09-28T12:13:50Z</time>
      </trkpt>
      <trkpt lat="43.96314" lon="5.10976">
        <ele>366.88</ele>
        <time>2020-09-28T12:14:09Z</time>
      </trkpt>
      <trkpt lat="43.96289" lon="5.10999">
        <ele>369.76</ele>
        <time>2020-09-28T12:14:34Z</time>
      </trkpt>
      <trkpt lat="43.96267" lon="5.11008">
        <ele>369.76</ele>
        <time>2020-09-28T12:14:52Z</time>
      </trkpt>
      <trkpt lat="43.96244" lon="5.11003">
        <ele>368.32</ele>
        <time>2020-09-28T12:15:11Z</time>
      </trkpt>
      <trkpt lat="43.96229" lon="5.11001">
        <ele>367.84</ele>
        <time>2020-09-28T12:15:24Z</time>
      </trkpt>
      <trkpt lat="43.96206" lon="5.11">
        <ele>367.36</ele>
        <time>2020-09-28T12:15:43Z</time>
      </trkpt>
      <trkpt lat="43.96184" lon="5.10997">
        <ele>366.88</ele>
        <time>2020-09-28T12:16:01Z</time>
      </trkpt>
      <trkpt lat="43.96158" lon="5.10995">
        <ele>367.84</ele>
        <time>2020-09-28T12:16:18Z</time>
      </trkpt>
      <trkpt lat="43.96137" lon="5.11004">
        <ele>367.84</ele>
        <time>2020-09-28T12:16:35Z</time>
      </trkpt>
      <trkpt lat="43.96118" lon="5.11019">
        <ele>368.8</ele>
        <time>2020-09-28T12:16:52Z</time>
      </trkpt>
      <trkpt lat="43.96108" lon="5.11028">
        <ele>368.32</ele>
        <time>2020-09-28T12:17:02Z</time>
      </trkpt>
      <trkpt lat="43.96091" lon="5.11049">
        <ele>369.28</ele>
        <time>2020-09-28T12:17:20Z</time>
      </trkpt>
      <trkpt lat="43.96073" lon="5.11067">
        <ele>369.76</ele>
        <time>2020-09-28T12:17:40Z</time>
      </trkpt>
      <trkpt lat="43.96059" lon="5.11077">
        <ele>370.24</ele>
        <time>2020-09-28T12:17:56Z</time>
      </trkpt>
      <trkpt lat="43.96046" lon="5.11086">
        <ele>371.21</ele>
        <time>2020-09-28T12:18:09Z</time>
      </trkpt>
      <trkpt lat="43.96037" lon="5.11089">
        <ele>370.73</ele>
        <time>2020-09-28T12:18:24Z</time>
      </trkpt>
      <trkpt lat="43.96034" lon="5.11086">
        <ele>371.21</ele>
        <time>2020-09-28T12:18:41Z</time>
      </trkpt>
      <trkpt lat="43.96034" lon="5.11086">
        <ele>371.21</ele>
        <time>2020-09-28T12:19:10Z</time>
      </trkpt>
      <trkpt lat="43.96029" lon="5.11084">
        <ele>371.21</ele>
        <time>2020-09-28T12:19:18Z</time>
      </trkpt>
      <trkpt lat="43.96009" lon="5.11067">
        <ele>369.76</ele>
        <time>2020-09-28T12:19:39Z</time>
      </trkpt>
      <trkpt lat="43.95991" lon="5.11042">
        <ele>367.84</ele>
        <time>2020-09-28T12:20:00Z</time>
      </trkpt>
      <trkpt lat="43.95974" lon="5.1102">
        <ele>366.88</ele>
        <time>2020-09-28T12:20:22Z</time>
      </trkpt>
      <trkpt lat="43.95962" lon="5.11003">
        <ele>365.44</ele>
        <time>2020-09-28T12:20:42Z</time>
      </trkpt>
      <trkpt lat="43.9595" lon="5.10989">
        <ele>364</ele>
        <time>2020-09-28T12:21:01Z</time>
      </trkpt>
      <trkpt lat="43.95948" lon="5.10986">
        <ele>364</ele>
        <time>2020-09-28T12:21:06Z</time>
      </trkpt>
      <trkpt lat="43.95932" lon="5.10963">
        <ele>362.07</ele>
        <time>2020-09-28T12:21:25Z</time>
      </trkpt>
      <trkpt lat="43.95922" lon="5.10949">
        <ele>361.11</ele>
        <time>2020-09-28T12:21:44Z</time>
      </trkpt>
      <trkpt lat="43.95922" lon="5.1095">
        <ele>360.63</ele>
        <time>2020-09-28T12:22:16Z</time>
      </trkpt>
      <trkpt lat="43.95921" lon="5.10956">
        <ele>360.15</ele>
        <time>2020-09-28T12:22:40Z</time>
      </trkpt>
      <trkpt lat="43.95921" lon="5.10958">
        <ele>360.15</ele>
        <time>2020-09-28T12:23:02Z</time>
      </trkpt>
      <trkpt lat="43.95921" lon="5.10961">
        <ele>361.11</ele>
        <time>2020-09-28T12:23:31Z</time>
      </trkpt>
      <trkpt lat="43.95921" lon="5.10958">
        <ele>360.63</ele>
        <time>2020-09-28T12:23:49Z</time>
      </trkpt>
      <trkpt lat="43.95916" lon="5.10952">
        <ele>360.15</ele>
        <time>2020-09-28T12:23:56Z</time>
      </trkpt>
      <trkpt lat="43.95908" lon="5.1092">
        <ele>358.71</ele>
        <time>2020-09-28T12:24:16Z</time>
      </trkpt>
      <trkpt lat="43.959" lon="5.10891">
        <ele>357.27</ele>
        <time>2020-09-28T12:24:33Z</time>
      </trkpt>
      <trkpt lat="43.95895" lon="5.10863">
        <ele>355.83</ele>
        <time>2020-09-28T12:24:50Z</time>
      </trkpt>
      <trkpt lat="43.9589" lon="5.10846">
        <ele>355.34</ele>
        <time>2020-09-28T12:25:01Z</time>
      </trkpt>
      <trkpt lat="43.95884" lon="5.10819">
        <ele>353.42</ele>
        <time>2020-09-28T12:25:18Z</time>
      </trkpt>
      <trkpt lat="43.95877" lon="5.10787">
        <ele>352.94</ele>
        <time>2020-09-28T12:25:37Z</time>
      </trkpt>
      <trkpt lat="43.95873" lon="5.10763">
        <ele>351.98</ele>
        <time>2020-09-28T12:25:52Z</time>
      </trkpt>
      <trkpt lat="43.95873" lon="5.10761">
        <ele>351.98</ele>
        <time>2020-09-28T12:25:54Z</time>
      </trkpt>
      <trkpt lat="43.95868" lon="5.10738">
        <ele>351.5</ele>
        <time>2020-09-28T12:26:10Z</time>
      </trkpt>
      <trkpt lat="43.9586" lon="5.10696">
        <ele>351.02</ele>
        <time>2020-09-28T12:26:34Z</time>
      </trkpt>
      <trkpt lat="43.95854" lon="5.10666">
        <ele>349.58</ele>
        <time>2020-09-28T12:26:54Z</time>
      </trkpt>
      <trkpt lat="43.95847" lon="5.10636">
        <ele>347.65</ele>
        <time>2020-09-28T12:27:13Z</time>
      </trkpt>
      <trkpt lat="43.95828" lon="5.10607">
        <ele>346.69</ele>
        <time>2020-09-28T12:27:32Z</time>
      </trkpt>
      <trkpt lat="43.95815" lon="5.10585">
        <ele>344.77</ele>
        <time>2020-09-28T12:27:48Z</time>
      </trkpt>
      <trkpt lat="43.95797" lon="5.10565">
        <ele>342.37</ele>
        <time>2020-09-28T12:28:06Z</time>
      </trkpt>
      <trkpt lat="43.95779" lon="5.10549">
        <ele>340.92</ele>
        <time>2020-09-28T12:28:24Z</time>
      </trkpt>
      <trkpt lat="43.95759" lon="5.10533">
        <ele>339.96</ele>
        <time>2020-09-28T12:28:43Z</time>
      </trkpt>
      <trkpt lat="43.95737" lon="5.10514">
        <ele>338.52</ele>
        <time>2020-09-28T12:29:02Z</time>
      </trkpt>
      <trkpt lat="43.95717" lon="5.10497">
        <ele>336.12</ele>
        <time>2020-09-28T12:29:21Z</time>
      </trkpt>
      <trkpt lat="43.95705" lon="5.10484">
        <ele>334.68</ele>
        <time>2020-09-28T12:29:33Z</time>
      </trkpt>
      <trkpt lat="43.95684" lon="5.10468">
        <ele>332.75</ele>
        <time>2020-09-28T12:29:51Z</time>
      </trkpt>
      <trkpt lat="43.95668" lon="5.10456">
        <ele>331.31</ele>
        <time>2020-09-28T12:30:06Z</time>
      </trkpt>
      <trkpt lat="43.95646" lon="5.10437">
        <ele>329.87</ele>
        <time>2020-09-28T12:30:26Z</time>
      </trkpt>
      <trkpt lat="43.95623" lon="5.10416">
        <ele>327.47</ele>
        <time>2020-09-28T12:30:47Z</time>
      </trkpt>
      <trkpt lat="43.95607" lon="5.10401">
        <ele>326.5</ele>
        <time>2020-09-28T12:31:02Z</time>
      </trkpt>
      <trkpt lat="43.95587" lon="5.10382">
        <ele>324.58</ele>
        <time>2020-09-28T12:31:22Z</time>
      </trkpt>
      <trkpt lat="43.95582" lon="5.10375">
        <ele>323.62</ele>
        <time>2020-09-28T12:31:28Z</time>
      </trkpt>
      <trkpt lat="43.95569" lon="5.10354">
        <ele>322.66</ele>
        <time>2020-09-28T12:31:46Z</time>
      </trkpt>
      <trkpt lat="43.95563" lon="5.10344">
        <ele>322.18</ele>
        <time>2020-09-28T12:31:54Z</time>
      </trkpt>
      <trkpt lat="43.95545" lon="5.10326">
        <ele>319.78</ele>
        <time>2020-09-28T12:32:10Z</time>
      </trkpt>
      <trkpt lat="43.95542" lon="5.10318">
        <ele>319.78</ele>
        <time>2020-09-28T12:32:30Z</time>
      </trkpt>
      <trkpt lat="43.95543" lon="5.10321">
        <ele>319.78</ele>
        <time>2020-09-28T12:33:00Z</time>
      </trkpt>
      <trkpt lat="43.95544" lon="5.10322">
        <ele>320.26</ele>
        <time>2020-09-28T12:33:25Z</time>
      </trkpt>
      <trkpt lat="43.95546" lon="5.10324">
        <ele>319.78</ele>
        <time>2020-09-28T12:33:53Z</time>
      </trkpt>
      <trkpt lat="43.95544" lon="5.10303">
        <ele>318.33</ele>
        <time>2020-09-28T12:34:18Z</time>
      </trkpt>
      <trkpt lat="43.95536" lon="5.10284">
        <ele>316.41</ele>
        <time>2020-09-28T12:34:33Z</time>
      </trkpt>
      <trkpt lat="43.9553" lon="5.10273">
        <ele>315.45</ele>
        <time>2020-09-28T12:34:41Z</time>
      </trkpt>
      <trkpt lat="43.95517" lon="5.10252">
        <ele>312.57</ele>
        <time>2020-09-28T12:34:58Z</time>
      </trkpt>
      <trkpt lat="43.95504" lon="5.10231">
        <ele>310.64</ele>
        <time>2020-09-28T12:35:15Z</time>
      </trkpt>
      <trkpt lat="43.95499" lon="5.10225">
        <ele>309.68</ele>
        <time>2020-09-28T12:35:21Z</time>
      </trkpt>
      <trkpt lat="43.95487" lon="5.10219">
        <ele>308.72</ele>
        <time>2020-09-28T12:35:35Z</time>
      </trkpt>
      <trkpt lat="43.95471" lon="5.10204">
        <ele>307.28</ele>
        <time>2020-09-28T12:35:51Z</time>
      </trkpt>
      <trkpt lat="43.95465" lon="5.102">
        <ele>307.28</ele>
        <time>2020-09-28T12:36:13Z</time>
      </trkpt>
      <trkpt lat="43.95457" lon="5.10191">
        <ele>306.8</ele>
        <time>2020-09-28T12:36:33Z</time>
      </trkpt>
      <trkpt lat="43.9545" lon="5.10189">
        <ele>305.84</ele>
        <time>2020-09-28T12:36:43Z</time>
      </trkpt>
      <trkpt lat="43.95446" lon="5.1019">
        <ele>305.84</ele>
        <time>2020-09-28T12:36:46Z</time>
      </trkpt>
      <trkpt lat="43.95438" lon="5.10193">
        <ele>305.36</ele>
        <time>2020-09-28T12:36:55Z</time>
      </trkpt>
      <trkpt lat="43.95419" lon="5.10199">
        <ele>304.39</ele>
        <time>2020-09-28T12:37:13Z</time>
      </trkpt>
      <trkpt lat="43.95406" lon="5.10191">
        <ele>304.88</ele>
        <time>2020-09-28T12:37:26Z</time>
      </trkpt>
      <trkpt lat="43.95398" lon="5.10179">
        <ele>304.39</ele>
        <time>2020-09-28T12:37:36Z</time>
      </trkpt>
      <trkpt lat="43.95395" lon="5.10171">
        <ele>305.36</ele>
        <time>2020-09-28T12:37:41Z</time>
      </trkpt>
      <trkpt lat="43.95385" lon="5.10144">
        <ele>304.39</ele>
        <time>2020-09-28T12:38:00Z</time>
      </trkpt>
      <trkpt lat="43.95373" lon="5.10122">
        <ele>303.43</ele>
        <time>2020-09-28T12:38:16Z</time>
      </trkpt>
      <trkpt lat="43.95359" lon="5.10106">
        <ele>301.51</ele>
        <time>2020-09-28T12:38:31Z</time>
      </trkpt>
      <trkpt lat="43.95347" lon="5.10092">
        <ele>299.59</ele>
        <time>2020-09-28T12:38:46Z</time>
      </trkpt>
      <trkpt lat="43.95332" lon="5.10076">
        <ele>299.59</ele>
        <time>2020-09-28T12:39:04Z</time>
      </trkpt>
      <trkpt lat="43.95331" lon="5.10074">
        <ele>299.59</ele>
        <time>2020-09-28T12:39:06Z</time>
      </trkpt>
      <trkpt lat="43.95309" lon="5.10055">
        <ele>299.11</ele>
        <time>2020-09-28T12:39:24Z</time>
      </trkpt>
      <trkpt lat="43.95293" lon="5.10051">
        <ele>298.15</ele>
        <time>2020-09-28T12:39:38Z</time>
      </trkpt>
      <trkpt lat="43.95271" lon="5.10048">
        <ele>297.67</ele>
        <time>2020-09-28T12:39:55Z</time>
      </trkpt>
      <trkpt lat="43.95258" lon="5.10041">
        <ele>298.63</ele>
        <time>2020-09-28T12:40:07Z</time>
      </trkpt>
      <trkpt lat="43.95236" lon="5.10047">
        <ele>298.15</ele>
        <time>2020-09-28T12:40:28Z</time>
      </trkpt>
      <trkpt lat="43.95217" lon="5.10049">
        <ele>298.63</ele>
        <time>2020-09-28T12:40:46Z</time>
      </trkpt>
      <trkpt lat="43.95208" lon="5.10056">
        <ele>298.63</ele>
        <time>2020-09-28T12:41:02Z</time>
      </trkpt>
      <trkpt lat="43.952" lon="5.10062">
        <ele>300.07</ele>
        <time>2020-09-28T12:41:22Z</time>
      </trkpt>
      <trkpt lat="43.95198" lon="5.10065">
        <ele>299.59</ele>
        <time>2020-09-28T12:41:40Z</time>
      </trkpt>
      <trkpt lat="43.95195" lon="5.10067">
        <ele>299.59</ele>
        <time>2020-09-28T12:41:43Z</time>
      </trkpt>
      <trkpt lat="43.95192" lon="5.10068">
        <ele>299.59</ele>
        <time>2020-09-28T12:41:45Z</time>
      </trkpt>
      <trkpt lat="43.9519" lon="5.10066">
        <ele>300.07</ele>
        <time>2020-09-28T12:41:47Z</time>
      </trkpt>
      <trkpt lat="43.95186" lon="5.10052">
        <ele>299.59</ele>
        <time>2020-09-28T12:41:57Z</time>
      </trkpt>
      <trkpt lat="43.95182" lon="5.10047">
        <ele>298.63</ele>
        <time>2020-09-28T12:42:02Z</time>
      </trkpt>
      <trkpt lat="43.95171" lon="5.10047">
        <ele>297.67</ele>
        <time>2020-09-28T12:42:13Z</time>
      </trkpt>
      <trkpt lat="43.95153" lon="5.10038">
        <ele>294.78</ele>
        <time>2020-09-28T12:42:31Z</time>
      </trkpt>
      <trkpt lat="43.95136" lon="5.10025">
        <ele>292.86</ele>
        <time>2020-09-28T12:42:52Z</time>
      </trkpt>
      <trkpt lat="43.95127" lon="5.10026">
        <ele>292.38</ele>
        <time>2020-09-28T12:43:00Z</time>
      </trkpt>
      <trkpt lat="43.9511" lon="5.10031">
        <ele>291.42</ele>
        <time>2020-09-28T12:43:14Z</time>
      </trkpt>
      <trkpt lat="43.9509" lon="5.10042">
        <ele>289.01</ele>
        <time>2020-09-28T12:43:34Z</time>
      </trkpt>
      <trkpt lat="43.95088" lon="5.10041">
        <ele>288.53</ele>
        <time>2020-09-28T12:43:36Z</time>
      </trkpt>
      <trkpt lat="43.95067" lon="5.10048">
        <ele>286.61</ele>
        <time>2020-09-28T12:43:55Z</time>
      </trkpt>
      <trkpt lat="43.95041" lon="5.10055">
        <ele>284.69</ele>
        <time>2020-09-28T12:44:16Z</time>
      </trkpt>
      <trkpt lat="43.95021" lon="5.10055">
        <ele>284.21</ele>
        <time>2020-09-28T12:44:32Z</time>
      </trkpt>
      <trkpt lat="43.95005" lon="5.10053">
        <ele>284.21</ele>
        <time>2020-09-28T12:44:49Z</time>
      </trkpt>
      <trkpt lat="43.94987" lon="5.1005">
        <ele>282.28</ele>
        <time>2020-09-28T12:45:04Z</time>
      </trkpt>
      <trkpt lat="43.94969" lon="5.10048">
        <ele>281.8</ele>
        <time>2020-09-28T12:45:21Z</time>
      </trkpt>
      <trkpt lat="43.9495" lon="5.10051">
        <ele>280.36</ele>
        <time>2020-09-28T12:45:38Z</time>
      </trkpt>
      <trkpt lat="43.94935" lon="5.10057">
        <ele>278.92</ele>
        <time>2020-09-28T12:45:53Z</time>
      </trkpt>
      <trkpt lat="43.9492" lon="5.10069">
        <ele>277.48</ele>
        <time>2020-09-28T12:46:08Z</time>
      </trkpt>
      <trkpt lat="43.94908" lon="5.10078">
        <ele>276.52</ele>
        <time>2020-09-28T12:46:20Z</time>
      </trkpt>
      <trkpt lat="43.94892" lon="5.10091">
        <ele>275.07</ele>
        <time>2020-09-28T12:46:36Z</time>
      </trkpt>
      <trkpt lat="43.94874" lon="5.10105">
        <ele>273.63</ele>
        <time>2020-09-28T12:46:53Z</time>
      </trkpt>
      <trkpt lat="43.94856" lon="5.10118">
        <ele>272.19</ele>
        <time>2020-09-28T12:47:10Z</time>
      </trkpt>
      <trkpt lat="43.94848" lon="5.10123">
        <ele>272.19</ele>
        <time>2020-09-28T12:47:20Z</time>
      </trkpt>
      <trkpt lat="43.94846" lon="5.10126">
        <ele>272.19</ele>
        <time>2020-09-28T12:47:22Z</time>
      </trkpt>
      <trkpt lat="43.94825" lon="5.10137">
        <ele>271.71</ele>
        <time>2020-09-28T12:47:39Z</time>
      </trkpt>
      <trkpt lat="43.94812" lon="5.10144">
        <ele>272.19</ele>
        <time>2020-09-28T12:47:54Z</time>
      </trkpt>
      <trkpt lat="43.94795" lon="5.10147">
        <ele>271.71</ele>
        <time>2020-09-28T12:48:13Z</time>
      </trkpt>
      <trkpt lat="43.94776" lon="5.1015">
        <ele>271.23</ele>
        <time>2020-09-28T12:48:30Z</time>
      </trkpt>
      <trkpt lat="43.94756" lon="5.10152">
        <ele>271.23</ele>
        <time>2020-09-28T12:48:49Z</time>
      </trkpt>
      <trkpt lat="43.94737" lon="5.10155">
        <ele>270.27</ele>
        <time>2020-09-28T12:49:05Z</time>
      </trkpt>
      <trkpt lat="43.94716" lon="5.10159">
        <ele>271.23</ele>
        <time>2020-09-28T12:49:23Z</time>
      </trkpt>
      <trkpt lat="43.94699" lon="5.10166">
        <ele>269.79</ele>
        <time>2020-09-28T12:49:38Z</time>
      </trkpt>
      <trkpt lat="43.94683" lon="5.10169">
        <ele>270.75</ele>
        <time>2020-09-28T12:49:52Z</time>
      </trkpt>
      <trkpt lat="43.94668" lon="5.10168">
        <ele>268.83</ele>
        <time>2020-09-28T12:50:05Z</time>
      </trkpt>
      <trkpt lat="43.94647" lon="5.10181">
        <ele>268.83</ele>
        <time>2020-09-28T12:50:23Z</time>
      </trkpt>
      <trkpt lat="43.94623" lon="5.10184">
        <ele>267.86</ele>
        <time>2020-09-28T12:50:44Z</time>
      </trkpt>
      <trkpt lat="43.94608" lon="5.10176">
        <ele>267.38</ele>
        <time>2020-09-28T12:51:03Z</time>
      </trkpt>
      <trkpt lat="43.94608" lon="5.10175">
        <ele>266.42</ele>
        <time>2020-09-28T12:51:26Z</time>
      </trkpt>
      <trkpt lat="43.94609" lon="5.10174">
        <ele>267.38</ele>
        <time>2020-09-28T12:51:54Z</time>
      </trkpt>
      <trkpt lat="43.94604" lon="5.10173">
        <ele>267.38</ele>
        <time>2020-09-28T12:52:13Z</time>
      </trkpt>
      <trkpt lat="43.94587" lon="5.10158">
        <ele>266.9</ele>
        <time>2020-09-28T12:52:31Z</time>
      </trkpt>
      <trkpt lat="43.94577" lon="5.10151">
        <ele>267.38</ele>
        <time>2020-09-28T12:52:42Z</time>
      </trkpt>
      <trkpt lat="43.94556" lon="5.10138">
        <ele>267.38</ele>
        <time>2020-09-28T12:53:02Z</time>
      </trkpt>
      <trkpt lat="43.94537" lon="5.10131">
        <ele>267.38</ele>
        <time>2020-09-28T12:53:17Z</time>
      </trkpt>
      <trkpt lat="43.94517" lon="5.10128">
        <ele>267.38</ele>
        <time>2020-09-28T12:53:34Z</time>
      </trkpt>
      <trkpt lat="43.94503" lon="5.10128">
        <ele>266.9</ele>
        <time>2020-09-28T12:53:48Z</time>
      </trkpt>
      <trkpt lat="43.94481" lon="5.10131">
        <ele>266.42</ele>
        <time>2020-09-28T12:54:06Z</time>
      </trkpt>
      <trkpt lat="43.9446" lon="5.10128">
        <ele>264.98</ele>
        <time>2020-09-28T12:54:22Z</time>
      </trkpt>
      <trkpt lat="43.94436" lon="5.10126">
        <ele>264.98</ele>
        <time>2020-09-28T12:54:43Z</time>
      </trkpt>
      <trkpt lat="43.94416" lon="5.10124">
        <ele>262.58</ele>
        <time>2020-09-28T12:55:00Z</time>
      </trkpt>
      <trkpt lat="43.94399" lon="5.10124">
        <ele>262.1</ele>
        <time>2020-09-28T12:55:16Z</time>
      </trkpt>
      <trkpt lat="43.94379" lon="5.10122">
        <ele>259.69</ele>
        <time>2020-09-28T12:55:35Z</time>
      </trkpt>
      <trkpt lat="43.94359" lon="5.10125">
        <ele>258.73</ele>
        <time>2020-09-28T12:55:54Z</time>
      </trkpt>
      <trkpt lat="43.94352" lon="5.10125">
        <ele>258.73</ele>
        <time>2020-09-28T12:56:00Z</time>
      </trkpt>
      <trkpt lat="43.94331" lon="5.10123">
        <ele>256.33</ele>
        <time>2020-09-28T12:56:16Z</time>
      </trkpt>
      <trkpt lat="43.94313" lon="5.10116">
        <ele>255.37</ele>
        <time>2020-09-28T12:56:31Z</time>
      </trkpt>
      <trkpt lat="43.94292" lon="5.10111">
        <ele>253.93</ele>
        <time>2020-09-28T12:56:49Z</time>
      </trkpt>
      <trkpt lat="43.94273" lon="5.10108">
        <ele>252.96</ele>
        <time>2020-09-28T12:57:05Z</time>
      </trkpt>
      <trkpt lat="43.94258" lon="5.10102">
        <ele>252</ele>
        <time>2020-09-28T12:57:21Z</time>
      </trkpt>
      <trkpt lat="43.94241" lon="5.10119">
        <ele>251.52</ele>
        <time>2020-09-28T12:57:43Z</time>
      </trkpt>
      <trkpt lat="43.94231" lon="5.10136">
        <ele>251.52</ele>
        <time>2020-09-28T12:57:57Z</time>
      </trkpt>
      <trkpt lat="43.94222" lon="5.10159">
        <ele>251.04</ele>
        <time>2020-09-28T12:58:14Z</time>
      </trkpt>
      <trkpt lat="43.94216" lon="5.10182">
        <ele>248.16</ele>
        <time>2020-09-28T12:58:33Z</time>
      </trkpt>
      <trkpt lat="43.94209" lon="5.102">
        <ele>245.27</ele>
        <time>2020-09-28T12:58:51Z</time>
      </trkpt>
      <trkpt lat="43.94199" lon="5.10203">
        <ele>241.91</ele>
        <time>2020-09-28T12:59:03Z</time>
      </trkpt>
      <trkpt lat="43.94196" lon="5.10207">
        <ele>239.02</ele>
        <time>2020-09-28T12:59:20Z</time>
      </trkpt>
      <trkpt lat="43.94194" lon="5.10213">
        <ele>237.58</ele>
        <time>2020-09-28T12:59:29Z</time>
      </trkpt>
      <trkpt lat="43.94188" lon="5.10221">
        <ele>234.22</ele>
        <time>2020-09-28T12:59:47Z</time>
      </trkpt>
      <trkpt lat="43.94189" lon="5.10233">
        <ele>231.33</ele>
        <time>2020-09-28T13:00:02Z</time>
      </trkpt>
      <trkpt lat="43.94178" lon="5.10241">
        <ele>227.97</ele>
        <time>2020-09-28T13:00:22Z</time>
      </trkpt>
      <trkpt lat="43.94175" lon="5.10241">
        <ele>227.01</ele>
        <time>2020-09-28T13:00:35Z</time>
      </trkpt>
      <trkpt lat="43.94165" lon="5.10247">
        <ele>224.12</ele>
        <time>2020-09-28T13:00:50Z</time>
      </trkpt>
      <trkpt lat="43.94157" lon="5.10249">
        <ele>220.76</ele>
        <time>2020-09-28T13:01:07Z</time>
      </trkpt>
      <trkpt lat="43.94151" lon="5.10253">
        <ele>217.4</ele>
        <time>2020-09-28T13:01:24Z</time>
      </trkpt>
      <trkpt lat="43.94144" lon="5.10253">
        <ele>215.47</ele>
        <time>2020-09-28T13:01:38Z</time>
      </trkpt>
      <trkpt lat="43.94119" lon="5.10256">
        <ele>212.11</ele>
        <time>2020-09-28T13:01:55Z</time>
      </trkpt>
      <trkpt lat="43.94113" lon="5.10259">
        <ele>210.19</ele>
        <time>2020-09-28T13:02:02Z</time>
      </trkpt>
      <trkpt lat="43.94111" lon="5.10259">
        <ele>209.22</ele>
        <time>2020-09-28T13:02:05Z</time>
      </trkpt>
      <trkpt lat="43.94097" lon="5.10265">
        <ele>206.34</ele>
        <time>2020-09-28T13:02:25Z</time>
      </trkpt>
      <trkpt lat="43.94085" lon="5.10268">
        <ele>202.98</ele>
        <time>2020-09-28T13:02:41Z</time>
      </trkpt>
      <trkpt lat="43.94069" lon="5.10274">
        <ele>200.09</ele>
        <time>2020-09-28T13:03:00Z</time>
      </trkpt>
      <trkpt lat="43.94055" lon="5.10279">
        <ele>196.73</ele>
        <time>2020-09-28T13:03:18Z</time>
      </trkpt>
      <trkpt lat="43.94037" lon="5.10282">
        <ele>194.32</ele>
        <time>2020-09-28T13:03:42Z</time>
      </trkpt>
      <trkpt lat="43.94019" lon="5.10292">
        <ele>192.4</ele>
        <time>2020-09-28T13:04:03Z</time>
      </trkpt>
      <trkpt lat="43.94007" lon="5.10295">
        <ele>190</ele>
        <time>2020-09-28T13:04:20Z</time>
      </trkpt>
      <trkpt lat="43.93996" lon="5.10296">
        <ele>189.04</ele>
        <time>2020-09-28T13:04:32Z</time>
      </trkpt>
      <trkpt lat="43.93993" lon="5.10296">
        <ele>188.56</ele>
        <time>2020-09-28T13:04:35Z</time>
      </trkpt>
      <trkpt lat="43.93983" lon="5.103">
        <ele>187.59</ele>
        <time>2020-09-28T13:04:51Z</time>
      </trkpt>
      <trkpt lat="43.9398" lon="5.10302">
        <ele>187.59</ele>
        <time>2020-09-28T13:04:54Z</time>
      </trkpt>
      <trkpt lat="43.93967" lon="5.10303">
        <ele>185.67</ele>
        <time>2020-09-28T13:05:07Z</time>
      </trkpt>
      <trkpt lat="43.9396" lon="5.103">
        <ele>184.23</ele>
        <time>2020-09-28T13:05:20Z</time>
      </trkpt>
      <trkpt lat="43.93944" lon="5.10319">
        <ele>181.35</ele>
        <time>2020-09-28T13:05:38Z</time>
      </trkpt>
      <trkpt lat="43.93927" lon="5.10329">
        <ele>178.46</ele>
        <time>2020-09-28T13:05:53Z</time>
      </trkpt>
      <trkpt lat="43.93925" lon="5.10332">
        <ele>177.5</ele>
        <time>2020-09-28T13:06:17Z</time>
      </trkpt>
      <trkpt lat="43.93921" lon="5.10336">
        <ele>177.02</ele>
        <time>2020-09-28T13:06:46Z</time>
      </trkpt>
      <trkpt lat="43.93919" lon="5.10337">
        <ele>177.98</ele>
        <time>2020-09-28T13:07:16Z</time>
      </trkpt>
      <trkpt lat="43.93922" lon="5.10336">
        <ele>177.5</ele>
        <time>2020-09-28T13:07:39Z</time>
      </trkpt>
      <trkpt lat="43.93921" lon="5.10338">
        <ele>177.5</ele>
        <time>2020-09-28T13:08:08Z</time>
      </trkpt>
      <trkpt lat="43.9392" lon="5.10334">
        <ele>177.02</ele>
        <time>2020-09-28T13:08:14Z</time>
      </trkpt>
      <trkpt lat="43.93919" lon="5.10332">
        <ele>177.02</ele>
        <time>2020-09-28T13:08:22Z</time>
      </trkpt>
      <trkpt lat="43.93922" lon="5.10334">
        <ele>177.5</ele>
        <time>2020-09-28T13:08:26Z</time>
      </trkpt>
      <trkpt lat="43.93932" lon="5.10351">
        <ele>175.58</ele>
        <time>2020-09-28T13:08:55Z</time>
      </trkpt>
      <trkpt lat="43.93936" lon="5.10362">
        <ele>172.21</ele>
        <time>2020-09-28T13:09:15Z</time>
      </trkpt>
      <trkpt lat="43.93939" lon="5.10377">
        <ele>169.33</ele>
        <time>2020-09-28T13:09:29Z</time>
      </trkpt>
      <trkpt lat="43.93943" lon="5.10389">
        <ele>167.89</ele>
        <time>2020-09-28T13:09:38Z</time>
      </trkpt>
      <trkpt lat="43.93952" lon="5.10405">
        <ele>166.93</ele>
        <time>2020-09-28T13:09:50Z</time>
      </trkpt>
      <trkpt lat="43.93956" lon="5.10424">
        <ele>167.41</ele>
        <time>2020-09-28T13:10:04Z</time>
      </trkpt>
      <trkpt lat="43.93966" lon="5.10431">
        <ele>168.37</ele>
        <time>2020-09-28T13:10:13Z</time>
      </trkpt>
      <trkpt lat="43.93969" lon="5.10435">
        <ele>170.77</ele>
        <time>2020-09-28T13:10:27Z</time>
      </trkpt>
      <trkpt lat="43.93951" lon="5.1044">
        <ele>173.17</ele>
        <time>2020-09-28T13:10:43Z</time>
      </trkpt>
      <trkpt lat="43.93933" lon="5.10444">
        <ele>176.54</ele>
        <time>2020-09-28T13:11:03Z</time>
      </trkpt>
      <trkpt lat="43.93918" lon="5.10461">
        <ele>178.94</ele>
        <time>2020-09-28T13:11:20Z</time>
      </trkpt>
      <trkpt lat="43.93923" lon="5.10468">
        <ele>181.35</ele>
        <time>2020-09-28T13:11:35Z</time>
      </trkpt>
      <trkpt lat="43.93926" lon="5.10467">
        <ele>181.83</ele>
        <time>2020-09-28T13:11:38Z</time>
      </trkpt>
      <trkpt lat="43.93931" lon="5.10473">
        <ele>184.71</ele>
        <time>2020-09-28T13:11:56Z</time>
      </trkpt>
      <trkpt lat="43.93918" lon="5.10475">
        <ele>186.15</ele>
        <time>2020-09-28T13:12:08Z</time>
      </trkpt>
      <trkpt lat="43.93889" lon="5.1049">
        <ele>187.59</ele>
        <time>2020-09-28T13:12:33Z</time>
      </trkpt>
      <trkpt lat="43.93877" lon="5.10499">
        <ele>187.59</ele>
        <time>2020-09-28T13:12:47Z</time>
      </trkpt>
      <trkpt lat="43.93852" lon="5.10516">
        <ele>189.04</ele>
        <time>2020-09-28T13:13:10Z</time>
      </trkpt>
      <trkpt lat="43.93832" lon="5.10525">
        <ele>190.96</ele>
        <time>2020-09-28T13:13:29Z</time>
      </trkpt>
      <trkpt lat="43.93818" lon="5.10532">
        <ele>192.88</ele>
        <time>2020-09-28T13:13:50Z</time>
      </trkpt>
      <trkpt lat="43.93817" lon="5.10528">
        <ele>192.4</ele>
        <time>2020-09-28T13:14:13Z</time>
      </trkpt>
      <trkpt lat="43.9382" lon="5.1053">
        <ele>192.88</ele>
        <time>2020-09-28T13:14:35Z</time>
      </trkpt>
      <trkpt lat="43.93826" lon="5.10535">
        <ele>193.36</ele>
        <time>2020-09-28T13:15:03Z</time>
      </trkpt>
      <trkpt lat="43.93821" lon="5.10537">
        <ele>193.36</ele>
        <time>2020-09-28T13:15:06Z</time>
      </trkpt>
      <trkpt lat="43.93808" lon="5.10553">
        <ele>194.8</ele>
        <time>2020-09-28T13:15:20Z</time>
      </trkpt>
      <trkpt lat="43.938" lon="5.10557">
        <ele>194.8</ele>
        <time>2020-09-28T13:15:28Z</time>
      </trkpt>
      <trkpt lat="43.93777" lon="5.10553">
        <ele>195.77</ele>
        <time>2020-09-28T13:15:40Z</time>
      </trkpt>
    </trkseg>
  </trk>
</gpx>